<?xml version="1.0" encoding="UTF-8" standalone="no" ?>
<gpx xmlns="http://www.topografix.com/GPX/1/1" xmlns:xsi="http://www.w3.org/2001/XMLSchema-instance" xsi:schemaLocation="http://www.topografix.com/GPX/1/1 http://www.topografix.com/GPX/1/1/gpx.xsd" version="1.1" creator="VisuGPX - https://www.visugpx.com">
  <metadata>
    <name>2024-01-25-46-ST PANTALEON  BAGAT</name>
    <desc><![CDATA[Randonnée de 12 km pour environ 300m de dénivelé positif  3 côtes pour ce parcours en Quercy blanc ; Vue sur le château de Folmont, à ne pas manquer : la visite de l'église de Bagat et la montée au calvaire avec sa belle vue sur la vallée]]></desc>
  </metadata>
  <trk>
    <name><![CDATA[ST PANTALEON  BAGAT 20 JANV 2024 BOB]]></name>
    <extensions>
      <line xmlns="http://www.topografix.com/GPX/gpx_style/0/2">
        <color>0000FF</color>
        <width>4</width>
      </line>
    </extensions>
    <trkseg>
      <trkpt lat="44.36767" lon="1.26641">
        <ele>202.49</ele>
        <time>2024-01-20T12:08:32Z</time>
      </trkpt>
      <trkpt lat="44.36776" lon="1.2664">
        <ele>202.49</ele>
        <time>2024-01-20T12:08:43Z</time>
      </trkpt>
      <trkpt lat="44.36785" lon="1.26639">
        <ele>202.49</ele>
        <time>2024-01-20T12:08:52Z</time>
      </trkpt>
      <trkpt lat="44.36795" lon="1.26637">
        <ele>200.57</ele>
        <time>2024-01-20T12:09:00Z</time>
      </trkpt>
      <trkpt lat="44.36803" lon="1.26632">
        <ele>199.13</ele>
        <time>2024-01-20T12:09:07Z</time>
      </trkpt>
      <trkpt lat="44.36805" lon="1.26619">
        <ele>198.17</ele>
        <time>2024-01-20T12:09:15Z</time>
      </trkpt>
      <trkpt lat="44.36807" lon="1.26607">
        <ele>196.25</ele>
        <time>2024-01-20T12:09:23Z</time>
      </trkpt>
      <trkpt lat="44.36811" lon="1.26594">
        <ele>195.28</ele>
        <time>2024-01-20T12:09:31Z</time>
      </trkpt>
      <trkpt lat="44.36814" lon="1.2658">
        <ele>194.32</ele>
        <time>2024-01-20T12:09:39Z</time>
      </trkpt>
      <trkpt lat="44.36809" lon="1.2657">
        <ele>193.36</ele>
        <time>2024-01-20T12:09:48Z</time>
      </trkpt>
      <trkpt lat="44.36802" lon="1.2656">
        <ele>192.88</ele>
        <time>2024-01-20T12:09:55Z</time>
      </trkpt>
      <trkpt lat="44.36793" lon="1.26552">
        <ele>192.88</ele>
        <time>2024-01-20T12:10:02Z</time>
      </trkpt>
      <trkpt lat="44.36786" lon="1.26544">
        <ele>191.92</ele>
        <time>2024-01-20T12:10:09Z</time>
      </trkpt>
      <trkpt lat="44.36779" lon="1.26537">
        <ele>191.92</ele>
        <time>2024-01-20T12:10:16Z</time>
      </trkpt>
      <trkpt lat="44.36771" lon="1.26529">
        <ele>191.44</ele>
        <time>2024-01-20T12:10:24Z</time>
      </trkpt>
      <trkpt lat="44.36763" lon="1.26524">
        <ele>191.44</ele>
        <time>2024-01-20T12:10:31Z</time>
      </trkpt>
      <trkpt lat="44.36754" lon="1.26517">
        <ele>190.96</ele>
        <time>2024-01-20T12:10:38Z</time>
      </trkpt>
      <trkpt lat="44.36747" lon="1.26508">
        <ele>190.48</ele>
        <time>2024-01-20T12:10:45Z</time>
      </trkpt>
      <trkpt lat="44.36738" lon="1.26497">
        <ele>190</ele>
        <time>2024-01-20T12:10:53Z</time>
      </trkpt>
      <trkpt lat="44.36731" lon="1.26487">
        <ele>189.52</ele>
        <time>2024-01-20T12:11:00Z</time>
      </trkpt>
      <trkpt lat="44.36724" lon="1.26476">
        <ele>189.52</ele>
        <time>2024-01-20T12:11:07Z</time>
      </trkpt>
      <trkpt lat="44.36718" lon="1.26465">
        <ele>189.04</ele>
        <time>2024-01-20T12:11:14Z</time>
      </trkpt>
      <trkpt lat="44.36712" lon="1.26454">
        <ele>188.56</ele>
        <time>2024-01-20T12:11:22Z</time>
      </trkpt>
      <trkpt lat="44.36706" lon="1.26443">
        <ele>188.56</ele>
        <time>2024-01-20T12:11:30Z</time>
      </trkpt>
      <trkpt lat="44.367" lon="1.26433">
        <ele>188.56</ele>
        <time>2024-01-20T12:11:37Z</time>
      </trkpt>
      <trkpt lat="44.36694" lon="1.26423">
        <ele>188.08</ele>
        <time>2024-01-20T12:11:46Z</time>
      </trkpt>
      <trkpt lat="44.36686" lon="1.26416">
        <ele>188.08</ele>
        <time>2024-01-20T12:11:57Z</time>
      </trkpt>
      <trkpt lat="44.36677" lon="1.26411">
        <ele>187.59</ele>
        <time>2024-01-20T12:12:05Z</time>
      </trkpt>
      <trkpt lat="44.36668" lon="1.26408">
        <ele>187.59</ele>
        <time>2024-01-20T12:12:12Z</time>
      </trkpt>
      <trkpt lat="44.36658" lon="1.26407">
        <ele>187.11</ele>
        <time>2024-01-20T12:12:20Z</time>
      </trkpt>
      <trkpt lat="44.36648" lon="1.26404">
        <ele>187.59</ele>
        <time>2024-01-20T12:12:28Z</time>
      </trkpt>
      <trkpt lat="44.36638" lon="1.26401">
        <ele>187.11</ele>
        <time>2024-01-20T12:13:27Z</time>
      </trkpt>
      <trkpt lat="44.36629" lon="1.26399">
        <ele>187.11</ele>
        <time>2024-01-20T12:13:34Z</time>
      </trkpt>
      <trkpt lat="44.36621" lon="1.26394">
        <ele>187.11</ele>
        <time>2024-01-20T12:13:42Z</time>
      </trkpt>
      <trkpt lat="44.3654" lon="1.26379">
        <ele>184.6</ele>
        <time>2024-01-20T12:14:06Z</time>
      </trkpt>
      <trkpt lat="44.36487" lon="1.26366">
        <ele>183.9</ele>
        <time>2024-01-20T12:14:30Z</time>
      </trkpt>
      <trkpt lat="44.36464" lon="1.26359">
        <ele>184</ele>
        <time>2024-01-20T12:15:00Z</time>
      </trkpt>
      <trkpt lat="44.36428" lon="1.26345">
        <ele>183.2</ele>
        <time>2024-01-20T12:15:24Z</time>
      </trkpt>
      <trkpt lat="44.36413" lon="1.26318">
        <ele>183</ele>
      </trkpt>
      <trkpt lat="44.36407" lon="1.26281">
        <ele>183.3</ele>
        <time>2024-01-20T12:16:00Z</time>
      </trkpt>
      <trkpt lat="44.36402" lon="1.26235">
        <ele>183.2</ele>
        <time>2024-01-20T12:16:27Z</time>
      </trkpt>
      <trkpt lat="44.36393" lon="1.26185">
        <ele>184.3</ele>
        <time>2024-01-20T12:16:46Z</time>
      </trkpt>
      <trkpt lat="44.36365" lon="1.26136">
        <ele>183.1</ele>
        <time>2024-01-20T12:17:04Z</time>
      </trkpt>
      <trkpt lat="44.3634" lon="1.26087">
        <ele>183.2</ele>
        <time>2024-01-20T12:17:22Z</time>
      </trkpt>
      <trkpt lat="44.36353" lon="1.26081">
        <ele>183.7</ele>
      </trkpt>
      <trkpt lat="44.36442" lon="1.26076">
        <ele>195.9</ele>
      </trkpt>
      <trkpt lat="44.36459" lon="1.26075">
        <ele>198.1</ele>
      </trkpt>
      <trkpt lat="44.36469" lon="1.2607">
        <ele>199.5</ele>
      </trkpt>
      <trkpt lat="44.36473" lon="1.26055">
        <ele>201.1</ele>
      </trkpt>
      <trkpt lat="44.36473" lon="1.26032">
        <ele>203.6</ele>
      </trkpt>
      <trkpt lat="44.36473" lon="1.26008">
        <ele>206.2</ele>
        <time>2024-01-20T12:17:49Z</time>
      </trkpt>
      <trkpt lat="44.36474" lon="1.25978">
        <ele>209.6</ele>
        <time>2024-01-20T12:18:07Z</time>
      </trkpt>
      <trkpt lat="44.36478" lon="1.25951">
        <ele>211.4</ele>
        <time>2024-01-20T12:18:25Z</time>
      </trkpt>
      <trkpt lat="44.36482" lon="1.25916">
        <ele>212.9</ele>
        <time>2024-01-20T12:18:51Z</time>
      </trkpt>
      <trkpt lat="44.36487" lon="1.25887">
        <ele>215</ele>
        <time>2024-01-20T12:19:17Z</time>
      </trkpt>
      <trkpt lat="44.36489" lon="1.25864">
        <ele>215.7</ele>
      </trkpt>
      <trkpt lat="44.36496" lon="1.2584">
        <ele>218.9</ele>
        <time>2024-01-20T12:19:35Z</time>
      </trkpt>
      <trkpt lat="44.36499" lon="1.25826">
        <ele>220.7</ele>
      </trkpt>
      <trkpt lat="44.36498" lon="1.25804">
        <ele>221.3</ele>
        <time>2024-01-20T12:20:13Z</time>
      </trkpt>
      <trkpt lat="44.36497" lon="1.2576">
        <ele>224.2</ele>
        <time>2024-01-20T12:20:39Z</time>
      </trkpt>
      <trkpt lat="44.3651" lon="1.25717">
        <ele>230.6</ele>
        <time>2024-01-20T12:21:15Z</time>
      </trkpt>
      <trkpt lat="44.36516" lon="1.25697">
        <ele>231.3</ele>
      </trkpt>
      <trkpt lat="44.36521" lon="1.25675">
        <ele>232.1</ele>
        <time>2024-01-20T12:21:43Z</time>
      </trkpt>
      <trkpt lat="44.36523" lon="1.25652">
        <ele>234.7</ele>
      </trkpt>
      <trkpt lat="44.36523" lon="1.2563">
        <ele>237.3</ele>
        <time>2024-01-20T12:23:14Z</time>
      </trkpt>
      <trkpt lat="44.36519" lon="1.2561">
        <ele>237.9</ele>
        <time>2024-01-20T12:23:33Z</time>
      </trkpt>
      <trkpt lat="44.36523" lon="1.25577">
        <ele>241.5</ele>
        <time>2024-01-20T12:24:02Z</time>
      </trkpt>
      <trkpt lat="44.36527" lon="1.25541">
        <ele>244.8</ele>
        <time>2024-01-20T12:24:41Z</time>
      </trkpt>
      <trkpt lat="44.36533" lon="1.25506">
        <ele>245.5</ele>
      </trkpt>
      <trkpt lat="44.36541" lon="1.25477">
        <ele>247.2</ele>
      </trkpt>
      <trkpt lat="44.36558" lon="1.25451">
        <ele>249.4</ele>
        <time>2024-01-20T12:27:41Z</time>
      </trkpt>
      <trkpt lat="44.36575" lon="1.25427">
        <ele>249.7</ele>
        <time>2024-01-20T12:28:05Z</time>
      </trkpt>
      <trkpt lat="44.36586" lon="1.25409">
        <ele>250.6</ele>
      </trkpt>
      <trkpt lat="44.36599" lon="1.25393">
        <ele>251.3</ele>
      </trkpt>
      <trkpt lat="44.36605" lon="1.25384">
        <ele>251.8</ele>
        <time>2024-01-20T12:28:44Z</time>
      </trkpt>
      <trkpt lat="44.36611" lon="1.2537">
        <ele>252</ele>
        <time>2024-01-20T12:28:56Z</time>
      </trkpt>
      <trkpt lat="44.36618" lon="1.25356">
        <ele>252</ele>
        <time>2024-01-20T12:29:09Z</time>
      </trkpt>
      <trkpt lat="44.36626" lon="1.25345">
        <ele>252.48</ele>
        <time>2024-01-20T12:29:20Z</time>
      </trkpt>
      <trkpt lat="44.36633" lon="1.25337">
        <ele>252.96</ele>
        <time>2024-01-20T12:29:29Z</time>
      </trkpt>
      <trkpt lat="44.36642" lon="1.25328">
        <ele>253.44</ele>
        <time>2024-01-20T12:29:38Z</time>
      </trkpt>
      <trkpt lat="44.36651" lon="1.25321">
        <ele>254.41</ele>
        <time>2024-01-20T12:29:47Z</time>
      </trkpt>
      <trkpt lat="44.36661" lon="1.25314">
        <ele>254.41</ele>
        <time>2024-01-20T12:29:56Z</time>
      </trkpt>
      <trkpt lat="44.36671" lon="1.25309">
        <ele>254.41</ele>
        <time>2024-01-20T12:30:05Z</time>
      </trkpt>
      <trkpt lat="44.36679" lon="1.25303">
        <ele>254.89</ele>
        <time>2024-01-20T12:30:14Z</time>
      </trkpt>
      <trkpt lat="44.36687" lon="1.25294">
        <ele>254.89</ele>
        <time>2024-01-20T12:30:22Z</time>
      </trkpt>
      <trkpt lat="44.36697" lon="1.25287">
        <ele>254.89</ele>
        <time>2024-01-20T12:30:30Z</time>
      </trkpt>
      <trkpt lat="44.36707" lon="1.25281">
        <ele>254.89</ele>
        <time>2024-01-20T12:30:39Z</time>
      </trkpt>
      <trkpt lat="44.36716" lon="1.25276">
        <ele>255.37</ele>
        <time>2024-01-20T12:30:47Z</time>
      </trkpt>
      <trkpt lat="44.36725" lon="1.25269">
        <ele>255.37</ele>
        <time>2024-01-20T12:30:56Z</time>
      </trkpt>
      <trkpt lat="44.36735" lon="1.25266">
        <ele>255.85</ele>
        <time>2024-01-20T12:31:05Z</time>
      </trkpt>
      <trkpt lat="44.36742" lon="1.25257">
        <ele>256.33</ele>
        <time>2024-01-20T12:31:14Z</time>
      </trkpt>
      <trkpt lat="44.36748" lon="1.25244">
        <ele>256.33</ele>
        <time>2024-01-20T12:31:23Z</time>
      </trkpt>
      <trkpt lat="44.36755" lon="1.25234">
        <ele>256.81</ele>
        <time>2024-01-20T12:31:31Z</time>
      </trkpt>
      <trkpt lat="44.36763" lon="1.25223">
        <ele>256.81</ele>
        <time>2024-01-20T12:31:39Z</time>
      </trkpt>
      <trkpt lat="44.36771" lon="1.25211">
        <ele>256.81</ele>
        <time>2024-01-20T12:31:55Z</time>
      </trkpt>
      <trkpt lat="44.3678" lon="1.25203">
        <ele>256.81</ele>
        <time>2024-01-20T12:32:03Z</time>
      </trkpt>
      <trkpt lat="44.36789" lon="1.25194">
        <ele>256.81</ele>
        <time>2024-01-20T12:32:12Z</time>
      </trkpt>
      <trkpt lat="44.36798" lon="1.25186">
        <ele>255.85</ele>
        <time>2024-01-20T12:32:21Z</time>
      </trkpt>
      <trkpt lat="44.36805" lon="1.25177">
        <ele>255.85</ele>
        <time>2024-01-20T12:32:29Z</time>
      </trkpt>
      <trkpt lat="44.36813" lon="1.25168">
        <ele>255.85</ele>
        <time>2024-01-20T12:32:37Z</time>
      </trkpt>
      <trkpt lat="44.36821" lon="1.25158">
        <ele>255.85</ele>
        <time>2024-01-20T12:32:47Z</time>
      </trkpt>
      <trkpt lat="44.3683" lon="1.25148">
        <ele>257.29</ele>
        <time>2024-01-20T12:32:57Z</time>
      </trkpt>
      <trkpt lat="44.36838" lon="1.2514">
        <ele>257.77</ele>
        <time>2024-01-20T12:33:07Z</time>
      </trkpt>
      <trkpt lat="44.36848" lon="1.2513">
        <ele>258.73</ele>
        <time>2024-01-20T12:33:16Z</time>
      </trkpt>
      <trkpt lat="44.36856" lon="1.25122">
        <ele>259.21</ele>
        <time>2024-01-20T12:33:25Z</time>
      </trkpt>
      <trkpt lat="44.36866" lon="1.25117">
        <ele>259.21</ele>
        <time>2024-01-20T12:33:34Z</time>
      </trkpt>
      <trkpt lat="44.36876" lon="1.25113">
        <ele>260.17</ele>
        <time>2024-01-20T12:33:43Z</time>
      </trkpt>
      <trkpt lat="44.36884" lon="1.25104">
        <ele>260.17</ele>
        <time>2024-01-20T12:33:51Z</time>
      </trkpt>
      <trkpt lat="44.36891" lon="1.25094">
        <ele>260.17</ele>
        <time>2024-01-20T12:34:00Z</time>
      </trkpt>
      <trkpt lat="44.369" lon="1.25084">
        <ele>260.17</ele>
        <time>2024-01-20T12:34:09Z</time>
      </trkpt>
      <trkpt lat="44.36909" lon="1.25074">
        <ele>258.73</ele>
        <time>2024-01-20T12:34:19Z</time>
      </trkpt>
      <trkpt lat="44.36917" lon="1.25064">
        <ele>258.25</ele>
        <time>2024-01-20T12:34:29Z</time>
      </trkpt>
      <trkpt lat="44.36925" lon="1.25054">
        <ele>256.81</ele>
        <time>2024-01-20T12:34:43Z</time>
      </trkpt>
      <trkpt lat="44.36923" lon="1.25043">
        <ele>256.33</ele>
        <time>2024-01-20T12:34:54Z</time>
      </trkpt>
      <trkpt lat="44.36918" lon="1.2503">
        <ele>255.85</ele>
        <time>2024-01-20T12:35:03Z</time>
      </trkpt>
      <trkpt lat="44.36913" lon="1.25018">
        <ele>255.85</ele>
        <time>2024-01-20T12:35:11Z</time>
      </trkpt>
      <trkpt lat="44.36908" lon="1.25006">
        <ele>254.89</ele>
        <time>2024-01-20T12:35:20Z</time>
      </trkpt>
      <trkpt lat="44.36903" lon="1.24993">
        <ele>254.89</ele>
        <time>2024-01-20T12:35:28Z</time>
      </trkpt>
      <trkpt lat="44.36898" lon="1.24981">
        <ele>254.89</ele>
        <time>2024-01-20T12:35:36Z</time>
      </trkpt>
      <trkpt lat="44.36891" lon="1.24973">
        <ele>256.33</ele>
        <time>2024-01-20T12:35:50Z</time>
      </trkpt>
      <trkpt lat="44.36885" lon="1.24961">
        <ele>257.29</ele>
        <time>2024-01-20T12:36:00Z</time>
      </trkpt>
      <trkpt lat="44.36879" lon="1.24949">
        <ele>256.81</ele>
        <time>2024-01-20T12:36:10Z</time>
      </trkpt>
      <trkpt lat="44.36875" lon="1.24936">
        <ele>256.81</ele>
        <time>2024-01-20T12:36:19Z</time>
      </trkpt>
      <trkpt lat="44.36871" lon="1.24922">
        <ele>256.81</ele>
        <time>2024-01-20T12:36:28Z</time>
      </trkpt>
      <trkpt lat="44.36867" lon="1.2491">
        <ele>256.81</ele>
        <time>2024-01-20T12:36:37Z</time>
      </trkpt>
      <trkpt lat="44.3686" lon="1.24898">
        <ele>256.81</ele>
        <time>2024-01-20T12:36:46Z</time>
      </trkpt>
      <trkpt lat="44.36857" lon="1.24885">
        <ele>255.85</ele>
        <time>2024-01-20T12:36:55Z</time>
      </trkpt>
      <trkpt lat="44.3685" lon="1.24873">
        <ele>255.85</ele>
        <time>2024-01-20T12:37:06Z</time>
      </trkpt>
      <trkpt lat="44.36844" lon="1.24862">
        <ele>255.37</ele>
        <time>2024-01-20T12:37:16Z</time>
      </trkpt>
      <trkpt lat="44.36836" lon="1.24852">
        <ele>254.41</ele>
        <time>2024-01-20T12:37:26Z</time>
      </trkpt>
      <trkpt lat="44.36828" lon="1.24842">
        <ele>253.93</ele>
        <time>2024-01-20T12:37:36Z</time>
      </trkpt>
      <trkpt lat="44.36821" lon="1.24832">
        <ele>252.96</ele>
        <time>2024-01-20T12:37:46Z</time>
      </trkpt>
      <trkpt lat="44.36812" lon="1.2482">
        <ele>252</ele>
        <time>2024-01-20T12:37:59Z</time>
      </trkpt>
      <trkpt lat="44.36799" lon="1.24812">
        <ele>252</ele>
        <time>2024-01-20T12:38:10Z</time>
      </trkpt>
      <trkpt lat="44.36785" lon="1.24809">
        <ele>252</ele>
        <time>2024-01-20T12:38:20Z</time>
      </trkpt>
      <trkpt lat="44.36773" lon="1.24806">
        <ele>252</ele>
        <time>2024-01-20T12:38:32Z</time>
      </trkpt>
      <trkpt lat="44.36761" lon="1.24803">
        <ele>252.96</ele>
        <time>2024-01-20T12:38:41Z</time>
      </trkpt>
      <trkpt lat="44.3675" lon="1.24797">
        <ele>252.96</ele>
        <time>2024-01-20T12:38:50Z</time>
      </trkpt>
      <trkpt lat="44.36742" lon="1.24787">
        <ele>254.41</ele>
        <time>2024-01-20T12:39:00Z</time>
      </trkpt>
      <trkpt lat="44.36735" lon="1.24775">
        <ele>254.41</ele>
        <time>2024-01-20T12:39:09Z</time>
      </trkpt>
      <trkpt lat="44.36734" lon="1.24759">
        <ele>254.89</ele>
        <time>2024-01-20T12:39:20Z</time>
      </trkpt>
      <trkpt lat="44.36737" lon="1.24746">
        <ele>255.37</ele>
        <time>2024-01-20T12:39:36Z</time>
      </trkpt>
      <trkpt lat="44.36748" lon="1.24741">
        <ele>255.37</ele>
        <time>2024-01-20T12:40:33Z</time>
      </trkpt>
      <trkpt lat="44.36757" lon="1.24739">
        <ele>256.33</ele>
        <time>2024-01-20T12:40:43Z</time>
      </trkpt>
      <trkpt lat="44.36765" lon="1.24731">
        <ele>256.81</ele>
        <time>2024-01-20T12:40:53Z</time>
      </trkpt>
      <trkpt lat="44.36769" lon="1.24724">
        <ele>256.81</ele>
        <time>2024-01-20T12:41:01Z</time>
      </trkpt>
      <trkpt lat="44.36775" lon="1.24714">
        <ele>256.81</ele>
        <time>2024-01-20T12:41:09Z</time>
      </trkpt>
      <trkpt lat="44.36784" lon="1.24705">
        <ele>256.81</ele>
        <time>2024-01-20T12:41:18Z</time>
      </trkpt>
      <trkpt lat="44.36791" lon="1.24697">
        <ele>256.81</ele>
        <time>2024-01-20T12:41:26Z</time>
      </trkpt>
      <trkpt lat="44.36799" lon="1.24685">
        <ele>256.81</ele>
        <time>2024-01-20T12:41:34Z</time>
      </trkpt>
      <trkpt lat="44.36805" lon="1.24673">
        <ele>256.33</ele>
        <time>2024-01-20T12:41:42Z</time>
      </trkpt>
      <trkpt lat="44.36811" lon="1.24662">
        <ele>256.33</ele>
        <time>2024-01-20T12:41:51Z</time>
      </trkpt>
      <trkpt lat="44.36817" lon="1.24651">
        <ele>256.33</ele>
        <time>2024-01-20T12:42:01Z</time>
      </trkpt>
      <trkpt lat="44.36824" lon="1.2464">
        <ele>255.37</ele>
        <time>2024-01-20T12:42:09Z</time>
      </trkpt>
      <trkpt lat="44.36829" lon="1.2463">
        <ele>254.41</ele>
        <time>2024-01-20T12:42:17Z</time>
      </trkpt>
      <trkpt lat="44.36832" lon="1.24617">
        <ele>253.93</ele>
        <time>2024-01-20T12:42:26Z</time>
      </trkpt>
      <trkpt lat="44.36829" lon="1.24605">
        <ele>252.96</ele>
        <time>2024-01-20T12:42:38Z</time>
      </trkpt>
      <trkpt lat="44.3683" lon="1.24592">
        <ele>250.56</ele>
        <time>2024-01-20T12:42:49Z</time>
      </trkpt>
      <trkpt lat="44.36835" lon="1.2458">
        <ele>250.08</ele>
        <time>2024-01-20T12:43:01Z</time>
      </trkpt>
      <trkpt lat="44.36842" lon="1.24568">
        <ele>249.6</ele>
        <time>2024-01-20T12:43:15Z</time>
      </trkpt>
      <trkpt lat="44.36848" lon="1.24558">
        <ele>249.12</ele>
        <time>2024-01-20T12:43:24Z</time>
      </trkpt>
      <trkpt lat="44.36852" lon="1.24546">
        <ele>249.12</ele>
        <time>2024-01-20T12:43:32Z</time>
      </trkpt>
      <trkpt lat="44.36856" lon="1.24534">
        <ele>248.16</ele>
        <time>2024-01-20T12:43:42Z</time>
      </trkpt>
      <trkpt lat="44.36859" lon="1.24521">
        <ele>248.16</ele>
        <time>2024-01-20T12:43:53Z</time>
      </trkpt>
      <trkpt lat="44.36864" lon="1.24508">
        <ele>248.16</ele>
        <time>2024-01-20T12:44:02Z</time>
      </trkpt>
      <trkpt lat="44.36869" lon="1.24496">
        <ele>248.16</ele>
        <time>2024-01-20T12:44:12Z</time>
      </trkpt>
      <trkpt lat="44.36874" lon="1.24483">
        <ele>248.16</ele>
        <time>2024-01-20T12:44:22Z</time>
      </trkpt>
      <trkpt lat="44.36878" lon="1.24471">
        <ele>248.16</ele>
        <time>2024-01-20T12:44:39Z</time>
      </trkpt>
      <trkpt lat="44.36884" lon="1.24459">
        <ele>249.12</ele>
        <time>2024-01-20T12:44:51Z</time>
      </trkpt>
      <trkpt lat="44.36887" lon="1.24447">
        <ele>249.12</ele>
        <time>2024-01-20T12:45:02Z</time>
      </trkpt>
      <trkpt lat="44.36888" lon="1.24432">
        <ele>249.6</ele>
        <time>2024-01-20T12:45:13Z</time>
      </trkpt>
      <trkpt lat="44.36893" lon="1.2442">
        <ele>250.56</ele>
        <time>2024-01-20T12:45:22Z</time>
      </trkpt>
      <trkpt lat="44.36893" lon="1.24407">
        <ele>250.56</ele>
        <time>2024-01-20T12:45:33Z</time>
      </trkpt>
      <trkpt lat="44.36887" lon="1.24396">
        <ele>250.08</ele>
        <time>2024-01-20T12:45:53Z</time>
      </trkpt>
      <trkpt lat="44.36891" lon="1.24391">
        <ele>250.08</ele>
        <time>2024-01-20T12:47:15Z</time>
      </trkpt>
      <trkpt lat="44.36894" lon="1.24384">
        <ele>247.2</ele>
        <time>2024-01-20T12:47:47Z</time>
      </trkpt>
      <trkpt lat="44.36904" lon="1.24384">
        <ele>244.79</ele>
        <time>2024-01-20T12:48:07Z</time>
      </trkpt>
      <trkpt lat="44.36912" lon="1.24388">
        <ele>242.39</ele>
        <time>2024-01-20T12:48:22Z</time>
      </trkpt>
      <trkpt lat="44.36921" lon="1.24394">
        <ele>239.51</ele>
        <time>2024-01-20T12:48:39Z</time>
      </trkpt>
      <trkpt lat="44.36932" lon="1.24399">
        <ele>237.1</ele>
        <time>2024-01-20T12:48:55Z</time>
      </trkpt>
      <trkpt lat="44.36946" lon="1.24404">
        <ele>234.7</ele>
        <time>2024-01-20T12:49:21Z</time>
      </trkpt>
      <trkpt lat="44.36955" lon="1.2441">
        <ele>231.81</ele>
        <time>2024-01-20T12:49:38Z</time>
      </trkpt>
      <trkpt lat="44.36965" lon="1.24409">
        <ele>228.45</ele>
        <time>2024-01-20T12:49:53Z</time>
      </trkpt>
      <trkpt lat="44.36978" lon="1.24403">
        <ele>226.53</ele>
        <time>2024-01-20T12:50:11Z</time>
      </trkpt>
      <trkpt lat="44.36991" lon="1.24397">
        <ele>224.12</ele>
        <time>2024-01-20T12:50:27Z</time>
      </trkpt>
      <trkpt lat="44.37005" lon="1.24395">
        <ele>222.2</ele>
        <time>2024-01-20T12:50:43Z</time>
      </trkpt>
      <trkpt lat="44.37018" lon="1.24398">
        <ele>218.84</ele>
        <time>2024-01-20T12:50:58Z</time>
      </trkpt>
      <trkpt lat="44.37028" lon="1.24396">
        <ele>215.95</ele>
        <time>2024-01-20T12:51:18Z</time>
      </trkpt>
      <trkpt lat="44.37039" lon="1.2438">
        <ele>213.55</ele>
        <time>2024-01-20T12:51:34Z</time>
      </trkpt>
      <trkpt lat="44.37046" lon="1.24371">
        <ele>211.15</ele>
        <time>2024-01-20T12:51:51Z</time>
      </trkpt>
      <trkpt lat="44.37053" lon="1.2436">
        <ele>209.22</ele>
        <time>2024-01-20T12:52:02Z</time>
      </trkpt>
      <trkpt lat="44.37059" lon="1.24349">
        <ele>207.78</ele>
        <time>2024-01-20T12:52:11Z</time>
      </trkpt>
      <trkpt lat="44.37065" lon="1.24339">
        <ele>205.86</ele>
        <time>2024-01-20T12:52:21Z</time>
      </trkpt>
      <trkpt lat="44.37071" lon="1.24328">
        <ele>204.9</ele>
        <time>2024-01-20T12:52:31Z</time>
      </trkpt>
      <trkpt lat="44.37076" lon="1.24317">
        <ele>203.46</ele>
        <time>2024-01-20T12:52:40Z</time>
      </trkpt>
      <trkpt lat="44.3708" lon="1.24306">
        <ele>201.53</ele>
        <time>2024-01-20T12:52:49Z</time>
      </trkpt>
      <trkpt lat="44.37084" lon="1.24294">
        <ele>200.09</ele>
        <time>2024-01-20T12:52:58Z</time>
      </trkpt>
      <trkpt lat="44.37086" lon="1.2428">
        <ele>198.65</ele>
        <time>2024-01-20T12:53:08Z</time>
      </trkpt>
      <trkpt lat="44.3709" lon="1.24267">
        <ele>197.69</ele>
        <time>2024-01-20T12:53:30Z</time>
      </trkpt>
      <trkpt lat="44.37094" lon="1.24253">
        <ele>196.25</ele>
        <time>2024-01-20T12:53:41Z</time>
      </trkpt>
      <trkpt lat="44.37099" lon="1.24243">
        <ele>195.28</ele>
        <time>2024-01-20T12:53:54Z</time>
      </trkpt>
      <trkpt lat="44.37108" lon="1.24241">
        <ele>194.8</ele>
        <time>2024-01-20T12:54:04Z</time>
      </trkpt>
      <trkpt lat="44.3712" lon="1.24242">
        <ele>193.84</ele>
        <time>2024-01-20T12:54:13Z</time>
      </trkpt>
      <trkpt lat="44.3713" lon="1.24244">
        <ele>193.84</ele>
        <time>2024-01-20T12:54:21Z</time>
      </trkpt>
      <trkpt lat="44.37141" lon="1.24243">
        <ele>192.88</ele>
        <time>2024-01-20T12:54:31Z</time>
      </trkpt>
      <trkpt lat="44.37151" lon="1.24244">
        <ele>192.88</ele>
        <time>2024-01-20T12:54:40Z</time>
      </trkpt>
      <trkpt lat="44.37161" lon="1.24246">
        <ele>192.4</ele>
        <time>2024-01-20T12:54:48Z</time>
      </trkpt>
      <trkpt lat="44.37171" lon="1.24242">
        <ele>191.92</ele>
        <time>2024-01-20T12:54:57Z</time>
      </trkpt>
      <trkpt lat="44.37176" lon="1.24229">
        <ele>191.44</ele>
        <time>2024-01-20T12:55:06Z</time>
      </trkpt>
      <trkpt lat="44.37173" lon="1.24217">
        <ele>191.44</ele>
        <time>2024-01-20T12:55:14Z</time>
      </trkpt>
      <trkpt lat="44.3717" lon="1.24204">
        <ele>190.48</ele>
        <time>2024-01-20T12:55:23Z</time>
      </trkpt>
      <trkpt lat="44.37164" lon="1.24194">
        <ele>190.48</ele>
        <time>2024-01-20T12:55:31Z</time>
      </trkpt>
      <trkpt lat="44.3716" lon="1.24182">
        <ele>190</ele>
        <time>2024-01-20T12:55:39Z</time>
      </trkpt>
      <trkpt lat="44.37157" lon="1.2417">
        <ele>190</ele>
        <time>2024-01-20T12:55:48Z</time>
      </trkpt>
      <trkpt lat="44.37159" lon="1.24156">
        <ele>190</ele>
        <time>2024-01-20T12:56:03Z</time>
      </trkpt>
      <trkpt lat="44.37165" lon="1.24146">
        <ele>190</ele>
        <time>2024-01-20T12:56:15Z</time>
      </trkpt>
      <trkpt lat="44.37176" lon="1.24143">
        <ele>190</ele>
        <time>2024-01-20T12:56:27Z</time>
      </trkpt>
      <trkpt lat="44.37179" lon="1.24155">
        <ele>190</ele>
        <time>2024-01-20T12:56:52Z</time>
      </trkpt>
      <trkpt lat="44.3718" lon="1.24169">
        <ele>190</ele>
        <time>2024-01-20T12:57:02Z</time>
      </trkpt>
      <trkpt lat="44.3718" lon="1.24182">
        <ele>190</ele>
        <time>2024-01-20T12:57:12Z</time>
      </trkpt>
      <trkpt lat="44.37158" lon="1.24157">
        <ele>189.52</ele>
        <time>2024-01-20T12:59:18Z</time>
      </trkpt>
      <trkpt lat="44.37158" lon="1.24171">
        <ele>189.52</ele>
        <time>2024-01-20T12:59:29Z</time>
      </trkpt>
      <trkpt lat="44.37163" lon="1.24185">
        <ele>189.04</ele>
        <time>2024-01-20T12:59:38Z</time>
      </trkpt>
      <trkpt lat="44.37168" lon="1.24197">
        <ele>189.04</ele>
        <time>2024-01-20T12:59:46Z</time>
      </trkpt>
      <trkpt lat="44.37172" lon="1.24209">
        <ele>190.48</ele>
        <time>2024-01-20T12:59:58Z</time>
      </trkpt>
      <trkpt lat="44.37177" lon="1.24221">
        <ele>190.48</ele>
        <time>2024-01-20T13:00:06Z</time>
      </trkpt>
      <trkpt lat="44.37182" lon="1.24234">
        <ele>190.96</ele>
        <time>2024-01-20T13:00:15Z</time>
      </trkpt>
      <trkpt lat="44.37188" lon="1.24245">
        <ele>190.96</ele>
        <time>2024-01-20T13:00:24Z</time>
      </trkpt>
      <trkpt lat="44.37196" lon="1.24255">
        <ele>191.44</ele>
        <time>2024-01-20T13:00:33Z</time>
      </trkpt>
      <trkpt lat="44.372" lon="1.24257">
        <ele>190.96</ele>
        <time>2024-01-20T13:01:33Z</time>
      </trkpt>
      <trkpt lat="44.372" lon="1.24256">
        <ele>190.96</ele>
        <time>2024-01-20T13:01:43Z</time>
      </trkpt>
      <trkpt lat="44.37208" lon="1.24257">
        <ele>190.48</ele>
        <time>2024-01-20T13:01:51Z</time>
      </trkpt>
      <trkpt lat="44.37218" lon="1.24256">
        <ele>190.48</ele>
        <time>2024-01-20T13:01:59Z</time>
      </trkpt>
      <trkpt lat="44.37228" lon="1.24256">
        <ele>190.48</ele>
        <time>2024-01-20T13:02:08Z</time>
      </trkpt>
      <trkpt lat="44.37238" lon="1.24256">
        <ele>192.4</ele>
        <time>2024-01-20T13:02:17Z</time>
      </trkpt>
      <trkpt lat="44.37252" lon="1.24259">
        <ele>192.88</ele>
        <time>2024-01-20T13:02:31Z</time>
      </trkpt>
      <trkpt lat="44.37266" lon="1.2426">
        <ele>193.36</ele>
        <time>2024-01-20T13:02:41Z</time>
      </trkpt>
      <trkpt lat="44.37277" lon="1.24261">
        <ele>194.32</ele>
        <time>2024-01-20T13:02:50Z</time>
      </trkpt>
      <trkpt lat="44.37288" lon="1.24262">
        <ele>195.28</ele>
        <time>2024-01-20T13:03:00Z</time>
      </trkpt>
      <trkpt lat="44.37297" lon="1.24257">
        <ele>195.28</ele>
        <time>2024-01-20T13:03:16Z</time>
      </trkpt>
      <trkpt lat="44.37308" lon="1.24254">
        <ele>196.25</ele>
        <time>2024-01-20T13:03:28Z</time>
      </trkpt>
      <trkpt lat="44.37319" lon="1.24251">
        <ele>197.21</ele>
        <time>2024-01-20T13:03:40Z</time>
      </trkpt>
      <trkpt lat="44.3733" lon="1.24247">
        <ele>197.69</ele>
        <time>2024-01-20T13:03:49Z</time>
      </trkpt>
      <trkpt lat="44.37341" lon="1.24239">
        <ele>197.69</ele>
        <time>2024-01-20T13:03:58Z</time>
      </trkpt>
      <trkpt lat="44.37353" lon="1.24237">
        <ele>197.69</ele>
        <time>2024-01-20T13:04:07Z</time>
      </trkpt>
      <trkpt lat="44.37364" lon="1.24234">
        <ele>197.69</ele>
        <time>2024-01-20T13:04:17Z</time>
      </trkpt>
      <trkpt lat="44.37374" lon="1.24229">
        <ele>197.69</ele>
        <time>2024-01-20T13:04:27Z</time>
      </trkpt>
      <trkpt lat="44.37384" lon="1.24224">
        <ele>198.17</ele>
        <time>2024-01-20T13:04:36Z</time>
      </trkpt>
      <trkpt lat="44.37393" lon="1.2422">
        <ele>198.17</ele>
        <time>2024-01-20T13:04:44Z</time>
      </trkpt>
      <trkpt lat="44.37403" lon="1.24216">
        <ele>198.17</ele>
        <time>2024-01-20T13:04:54Z</time>
      </trkpt>
      <trkpt lat="44.37414" lon="1.24211">
        <ele>198.17</ele>
        <time>2024-01-20T13:05:03Z</time>
      </trkpt>
      <trkpt lat="44.37426" lon="1.24209">
        <ele>198.17</ele>
        <time>2024-01-20T13:05:12Z</time>
      </trkpt>
      <trkpt lat="44.37436" lon="1.24212">
        <ele>198.17</ele>
        <time>2024-01-20T13:05:21Z</time>
      </trkpt>
      <trkpt lat="44.37446" lon="1.24218">
        <ele>198.17</ele>
        <time>2024-01-20T13:05:30Z</time>
      </trkpt>
      <trkpt lat="44.37456" lon="1.24224">
        <ele>199.13</ele>
        <time>2024-01-20T13:05:39Z</time>
      </trkpt>
      <trkpt lat="44.37466" lon="1.24228">
        <ele>199.13</ele>
        <time>2024-01-20T13:05:49Z</time>
      </trkpt>
      <trkpt lat="44.37474" lon="1.24235">
        <ele>199.61</ele>
        <time>2024-01-20T13:05:58Z</time>
      </trkpt>
      <trkpt lat="44.37484" lon="1.24241">
        <ele>200.09</ele>
        <time>2024-01-20T13:06:07Z</time>
      </trkpt>
      <trkpt lat="44.37493" lon="1.24248">
        <ele>201.05</ele>
        <time>2024-01-20T13:06:17Z</time>
      </trkpt>
      <trkpt lat="44.37501" lon="1.24254">
        <ele>201.53</ele>
        <time>2024-01-20T13:06:27Z</time>
      </trkpt>
      <trkpt lat="44.3751" lon="1.2426">
        <ele>202.01</ele>
        <time>2024-01-20T13:06:36Z</time>
      </trkpt>
      <trkpt lat="44.37518" lon="1.24266">
        <ele>202.49</ele>
        <time>2024-01-20T13:06:50Z</time>
      </trkpt>
      <trkpt lat="44.37527" lon="1.24271">
        <ele>202.01</ele>
        <time>2024-01-20T13:06:56Z</time>
      </trkpt>
      <trkpt lat="44.37534" lon="1.24277">
        <ele>202.98</ele>
        <time>2024-01-20T13:07:02Z</time>
      </trkpt>
      <trkpt lat="44.37543" lon="1.24282">
        <ele>202.98</ele>
        <time>2024-01-20T13:07:12Z</time>
      </trkpt>
      <trkpt lat="44.37552" lon="1.24287">
        <ele>203.46</ele>
        <time>2024-01-20T13:07:20Z</time>
      </trkpt>
      <trkpt lat="44.37561" lon="1.24293">
        <ele>204.42</ele>
        <time>2024-01-20T13:07:30Z</time>
      </trkpt>
      <trkpt lat="44.3757" lon="1.24298">
        <ele>204.42</ele>
        <time>2024-01-20T13:07:39Z</time>
      </trkpt>
      <trkpt lat="44.37578" lon="1.24303">
        <ele>204.42</ele>
        <time>2024-01-20T13:07:48Z</time>
      </trkpt>
      <trkpt lat="44.37587" lon="1.24309">
        <ele>204.42</ele>
        <time>2024-01-20T13:07:56Z</time>
      </trkpt>
      <trkpt lat="44.37595" lon="1.24314">
        <ele>204.42</ele>
        <time>2024-01-20T13:08:04Z</time>
      </trkpt>
      <trkpt lat="44.37604" lon="1.24319">
        <ele>204.42</ele>
        <time>2024-01-20T13:08:13Z</time>
      </trkpt>
      <trkpt lat="44.37614" lon="1.2432">
        <ele>204.42</ele>
        <time>2024-01-20T13:08:23Z</time>
      </trkpt>
      <trkpt lat="44.37624" lon="1.24321">
        <ele>204.42</ele>
        <time>2024-01-20T13:08:31Z</time>
      </trkpt>
      <trkpt lat="44.37636" lon="1.24321">
        <ele>204.9</ele>
        <time>2024-01-20T13:08:39Z</time>
      </trkpt>
      <trkpt lat="44.37647" lon="1.24321">
        <ele>205.38</ele>
        <time>2024-01-20T13:08:48Z</time>
      </trkpt>
      <trkpt lat="44.37657" lon="1.24324">
        <ele>205.86</ele>
        <time>2024-01-20T13:08:56Z</time>
      </trkpt>
      <trkpt lat="44.37668" lon="1.24327">
        <ele>206.34</ele>
        <time>2024-01-20T13:09:05Z</time>
      </trkpt>
      <trkpt lat="44.37678" lon="1.24332">
        <ele>206.34</ele>
        <time>2024-01-20T13:09:14Z</time>
      </trkpt>
      <trkpt lat="44.37687" lon="1.24337">
        <ele>206.34</ele>
        <time>2024-01-20T13:09:23Z</time>
      </trkpt>
      <trkpt lat="44.37693" lon="1.24339">
        <ele>206.82</ele>
        <time>2024-01-20T13:10:54Z</time>
      </trkpt>
      <trkpt lat="44.37702" lon="1.24345">
        <ele>206.82</ele>
        <time>2024-01-20T13:12:17Z</time>
      </trkpt>
      <trkpt lat="44.37714" lon="1.2435">
        <ele>207.3</ele>
        <time>2024-01-20T13:12:25Z</time>
      </trkpt>
      <trkpt lat="44.37725" lon="1.24355">
        <ele>207.3</ele>
        <time>2024-01-20T13:12:33Z</time>
      </trkpt>
      <trkpt lat="44.37734" lon="1.24361">
        <ele>207.3</ele>
        <time>2024-01-20T13:12:42Z</time>
      </trkpt>
      <trkpt lat="44.37744" lon="1.24368">
        <ele>207.3</ele>
        <time>2024-01-20T13:12:51Z</time>
      </trkpt>
      <trkpt lat="44.37751" lon="1.24377">
        <ele>207.3</ele>
        <time>2024-01-20T13:13:00Z</time>
      </trkpt>
      <trkpt lat="44.3776" lon="1.24385">
        <ele>207.3</ele>
        <time>2024-01-20T13:13:08Z</time>
      </trkpt>
      <trkpt lat="44.37771" lon="1.24398">
        <ele>207.3</ele>
        <time>2024-01-20T13:13:19Z</time>
      </trkpt>
      <trkpt lat="44.37781" lon="1.24408">
        <ele>205.86</ele>
        <time>2024-01-20T13:13:28Z</time>
      </trkpt>
      <trkpt lat="44.3779" lon="1.2442">
        <ele>205.86</ele>
        <time>2024-01-20T13:13:36Z</time>
      </trkpt>
      <trkpt lat="44.37798" lon="1.24436">
        <ele>205.38</ele>
        <time>2024-01-20T13:13:44Z</time>
      </trkpt>
      <trkpt lat="44.37804" lon="1.2445">
        <ele>205.38</ele>
        <time>2024-01-20T13:13:52Z</time>
      </trkpt>
      <trkpt lat="44.3781" lon="1.24465">
        <ele>204.9</ele>
        <time>2024-01-20T13:14:02Z</time>
      </trkpt>
      <trkpt lat="44.3782" lon="1.24479">
        <ele>204.9</ele>
        <time>2024-01-20T13:14:11Z</time>
      </trkpt>
      <trkpt lat="44.3783" lon="1.24491">
        <ele>204.42</ele>
        <time>2024-01-20T13:14:19Z</time>
      </trkpt>
      <trkpt lat="44.37841" lon="1.24502">
        <ele>204.42</ele>
        <time>2024-01-20T13:14:27Z</time>
      </trkpt>
      <trkpt lat="44.37851" lon="1.24512">
        <ele>204.42</ele>
        <time>2024-01-20T13:14:36Z</time>
      </trkpt>
      <trkpt lat="44.37861" lon="1.2452">
        <ele>205.38</ele>
        <time>2024-01-20T13:14:45Z</time>
      </trkpt>
      <trkpt lat="44.37872" lon="1.24521">
        <ele>205.38</ele>
        <time>2024-01-20T13:14:53Z</time>
      </trkpt>
      <trkpt lat="44.37884" lon="1.24519">
        <ele>205.38</ele>
        <time>2024-01-20T13:15:02Z</time>
      </trkpt>
      <trkpt lat="44.37896" lon="1.24519">
        <ele>205.38</ele>
        <time>2024-01-20T13:15:10Z</time>
      </trkpt>
      <trkpt lat="44.37907" lon="1.24522">
        <ele>205.38</ele>
        <time>2024-01-20T13:15:19Z</time>
      </trkpt>
      <trkpt lat="44.37917" lon="1.24527">
        <ele>204.9</ele>
        <time>2024-01-20T13:15:27Z</time>
      </trkpt>
      <trkpt lat="44.37926" lon="1.24532">
        <ele>204.9</ele>
        <time>2024-01-20T13:15:34Z</time>
      </trkpt>
      <trkpt lat="44.37937" lon="1.24537">
        <ele>204.9</ele>
        <time>2024-01-20T13:15:42Z</time>
      </trkpt>
      <trkpt lat="44.37947" lon="1.24539">
        <ele>204.9</ele>
        <time>2024-01-20T13:15:49Z</time>
      </trkpt>
      <trkpt lat="44.37957" lon="1.24542">
        <ele>204.9</ele>
        <time>2024-01-20T13:15:57Z</time>
      </trkpt>
      <trkpt lat="44.37967" lon="1.24552">
        <ele>205.38</ele>
        <time>2024-01-20T13:16:09Z</time>
      </trkpt>
      <trkpt lat="44.37977" lon="1.24563">
        <ele>205.86</ele>
        <time>2024-01-20T13:16:18Z</time>
      </trkpt>
      <trkpt lat="44.37987" lon="1.24571">
        <ele>205.38</ele>
        <time>2024-01-20T13:16:26Z</time>
      </trkpt>
      <trkpt lat="44.37998" lon="1.24581">
        <ele>206.34</ele>
        <time>2024-01-20T13:16:36Z</time>
      </trkpt>
      <trkpt lat="44.38008" lon="1.2459">
        <ele>206.34</ele>
        <time>2024-01-20T13:16:46Z</time>
      </trkpt>
      <trkpt lat="44.38019" lon="1.24599">
        <ele>206.82</ele>
        <time>2024-01-20T13:16:56Z</time>
      </trkpt>
      <trkpt lat="44.38031" lon="1.24605">
        <ele>207.3</ele>
        <time>2024-01-20T13:17:06Z</time>
      </trkpt>
      <trkpt lat="44.38046" lon="1.2461">
        <ele>206.82</ele>
        <time>2024-01-20T13:17:17Z</time>
      </trkpt>
      <trkpt lat="44.38058" lon="1.24613">
        <ele>207.3</ele>
        <time>2024-01-20T13:17:28Z</time>
      </trkpt>
      <trkpt lat="44.38071" lon="1.24617">
        <ele>207.78</ele>
        <time>2024-01-20T13:17:38Z</time>
      </trkpt>
      <trkpt lat="44.38081" lon="1.24627">
        <ele>207.78</ele>
        <time>2024-01-20T13:17:48Z</time>
      </trkpt>
      <trkpt lat="44.38087" lon="1.24638">
        <ele>208.26</ele>
        <time>2024-01-20T13:17:56Z</time>
      </trkpt>
      <trkpt lat="44.38093" lon="1.2465">
        <ele>209.22</ele>
        <time>2024-01-20T13:18:06Z</time>
      </trkpt>
      <trkpt lat="44.38099" lon="1.24664">
        <ele>210.67</ele>
        <time>2024-01-20T13:18:17Z</time>
      </trkpt>
      <trkpt lat="44.38105" lon="1.24677">
        <ele>211.15</ele>
        <time>2024-01-20T13:18:27Z</time>
      </trkpt>
      <trkpt lat="44.38114" lon="1.24692">
        <ele>211.63</ele>
        <time>2024-01-20T13:18:38Z</time>
      </trkpt>
      <trkpt lat="44.38123" lon="1.24702">
        <ele>212.11</ele>
        <time>2024-01-20T13:18:52Z</time>
      </trkpt>
      <trkpt lat="44.38134" lon="1.24703">
        <ele>212.11</ele>
        <time>2024-01-20T13:19:02Z</time>
      </trkpt>
      <trkpt lat="44.38146" lon="1.24705">
        <ele>212.11</ele>
        <time>2024-01-20T13:19:14Z</time>
      </trkpt>
      <trkpt lat="44.3816" lon="1.24704">
        <ele>212.11</ele>
        <time>2024-01-20T13:19:27Z</time>
      </trkpt>
      <trkpt lat="44.38174" lon="1.24702">
        <ele>211.63</ele>
        <time>2024-01-20T13:19:38Z</time>
      </trkpt>
      <trkpt lat="44.38187" lon="1.24701">
        <ele>211.63</ele>
        <time>2024-01-20T13:19:49Z</time>
      </trkpt>
      <trkpt lat="44.38199" lon="1.24701">
        <ele>210.67</ele>
        <time>2024-01-20T13:19:59Z</time>
      </trkpt>
      <trkpt lat="44.38212" lon="1.24707">
        <ele>210.19</ele>
        <time>2024-01-20T13:20:12Z</time>
      </trkpt>
      <trkpt lat="44.38222" lon="1.24719">
        <ele>209.22</ele>
        <time>2024-01-20T13:20:25Z</time>
      </trkpt>
      <trkpt lat="44.38234" lon="1.24728">
        <ele>208.74</ele>
        <time>2024-01-20T13:20:35Z</time>
      </trkpt>
      <trkpt lat="44.38246" lon="1.24736">
        <ele>208.26</ele>
        <time>2024-01-20T13:20:45Z</time>
      </trkpt>
      <trkpt lat="44.38253" lon="1.24748">
        <ele>208.26</ele>
        <time>2024-01-20T13:20:56Z</time>
      </trkpt>
      <trkpt lat="44.38261" lon="1.24762">
        <ele>208.26</ele>
        <time>2024-01-20T13:21:06Z</time>
      </trkpt>
      <trkpt lat="44.3827" lon="1.24775">
        <ele>208.26</ele>
        <time>2024-01-20T13:21:16Z</time>
      </trkpt>
      <trkpt lat="44.38279" lon="1.24787">
        <ele>208.26</ele>
        <time>2024-01-20T13:21:26Z</time>
      </trkpt>
      <trkpt lat="44.38291" lon="1.248">
        <ele>208.26</ele>
        <time>2024-01-20T13:21:36Z</time>
      </trkpt>
      <trkpt lat="44.38302" lon="1.24812">
        <ele>207.78</ele>
        <time>2024-01-20T13:21:46Z</time>
      </trkpt>
      <trkpt lat="44.38309" lon="1.24822">
        <ele>207.78</ele>
        <time>2024-01-20T13:21:56Z</time>
      </trkpt>
      <trkpt lat="44.38323" lon="1.24834">
        <ele>207.78</ele>
        <time>2024-01-20T13:22:08Z</time>
      </trkpt>
      <trkpt lat="44.38332" lon="1.24846">
        <ele>207.78</ele>
        <time>2024-01-20T13:22:19Z</time>
      </trkpt>
      <trkpt lat="44.38339" lon="1.24858">
        <ele>207.78</ele>
        <time>2024-01-20T13:22:30Z</time>
      </trkpt>
      <trkpt lat="44.38349" lon="1.2487">
        <ele>207.78</ele>
        <time>2024-01-20T13:22:40Z</time>
      </trkpt>
      <trkpt lat="44.38362" lon="1.24883">
        <ele>207.78</ele>
        <time>2024-01-20T13:22:50Z</time>
      </trkpt>
      <trkpt lat="44.38376" lon="1.24894">
        <ele>207.78</ele>
        <time>2024-01-20T13:23:02Z</time>
      </trkpt>
      <trkpt lat="44.38385" lon="1.24903">
        <ele>207.78</ele>
        <time>2024-01-20T13:23:12Z</time>
      </trkpt>
      <trkpt lat="44.38396" lon="1.24908">
        <ele>207.78</ele>
        <time>2024-01-20T13:23:21Z</time>
      </trkpt>
      <trkpt lat="44.38405" lon="1.24914">
        <ele>207.78</ele>
        <time>2024-01-20T13:23:29Z</time>
      </trkpt>
      <trkpt lat="44.38415" lon="1.24918">
        <ele>207.78</ele>
        <time>2024-01-20T13:23:37Z</time>
      </trkpt>
      <trkpt lat="44.38424" lon="1.24924">
        <ele>207.78</ele>
        <time>2024-01-20T13:23:45Z</time>
      </trkpt>
      <trkpt lat="44.38434" lon="1.24927">
        <ele>207.78</ele>
        <time>2024-01-20T13:23:55Z</time>
      </trkpt>
      <trkpt lat="44.38443" lon="1.24933">
        <ele>207.78</ele>
        <time>2024-01-20T13:24:04Z</time>
      </trkpt>
      <trkpt lat="44.3845" lon="1.24944">
        <ele>207.78</ele>
        <time>2024-01-20T13:24:19Z</time>
      </trkpt>
      <trkpt lat="44.38457" lon="1.24954">
        <ele>208.74</ele>
        <time>2024-01-20T13:24:28Z</time>
      </trkpt>
      <trkpt lat="44.38462" lon="1.24966">
        <ele>209.22</ele>
        <time>2024-01-20T13:24:38Z</time>
      </trkpt>
      <trkpt lat="44.38468" lon="1.24978">
        <ele>209.7</ele>
        <time>2024-01-20T13:24:47Z</time>
      </trkpt>
      <trkpt lat="44.38474" lon="1.2499">
        <ele>209.7</ele>
        <time>2024-01-20T13:24:55Z</time>
      </trkpt>
      <trkpt lat="44.38477" lon="1.25004">
        <ele>210.67</ele>
        <time>2024-01-20T13:25:04Z</time>
      </trkpt>
      <trkpt lat="44.38482" lon="1.25017">
        <ele>210.67</ele>
        <time>2024-01-20T13:25:13Z</time>
      </trkpt>
      <trkpt lat="44.38487" lon="1.25031">
        <ele>210.67</ele>
        <time>2024-01-20T13:25:21Z</time>
      </trkpt>
      <trkpt lat="44.38491" lon="1.25044">
        <ele>211.15</ele>
        <time>2024-01-20T13:25:30Z</time>
      </trkpt>
      <trkpt lat="44.38496" lon="1.25057">
        <ele>211.63</ele>
        <time>2024-01-20T13:25:39Z</time>
      </trkpt>
      <trkpt lat="44.38499" lon="1.25074">
        <ele>212.11</ele>
        <time>2024-01-20T13:25:48Z</time>
      </trkpt>
      <trkpt lat="44.385" lon="1.25091">
        <ele>212.59</ele>
        <time>2024-01-20T13:25:58Z</time>
      </trkpt>
      <trkpt lat="44.38503" lon="1.25105">
        <ele>213.07</ele>
        <time>2024-01-20T13:26:07Z</time>
      </trkpt>
      <trkpt lat="44.38506" lon="1.25119">
        <ele>213.55</ele>
        <time>2024-01-20T13:26:16Z</time>
      </trkpt>
      <trkpt lat="44.38509" lon="1.25132">
        <ele>214.03</ele>
        <time>2024-01-20T13:26:26Z</time>
      </trkpt>
      <trkpt lat="44.38513" lon="1.25149">
        <ele>214.51</ele>
        <time>2024-01-20T13:26:37Z</time>
      </trkpt>
      <trkpt lat="44.38518" lon="1.25164">
        <ele>214.51</ele>
        <time>2024-01-20T13:26:47Z</time>
      </trkpt>
      <trkpt lat="44.38523" lon="1.25178">
        <ele>214.99</ele>
        <time>2024-01-20T13:26:57Z</time>
      </trkpt>
      <trkpt lat="44.38527" lon="1.25192">
        <ele>214.99</ele>
        <time>2024-01-20T13:27:06Z</time>
      </trkpt>
      <trkpt lat="44.38533" lon="1.25207">
        <ele>214.99</ele>
        <time>2024-01-20T13:27:15Z</time>
      </trkpt>
      <trkpt lat="44.38538" lon="1.2522">
        <ele>214.99</ele>
        <time>2024-01-20T13:27:23Z</time>
      </trkpt>
      <trkpt lat="44.38542" lon="1.25232">
        <ele>214.99</ele>
        <time>2024-01-20T13:27:31Z</time>
      </trkpt>
      <trkpt lat="44.38546" lon="1.25246">
        <ele>215.47</ele>
        <time>2024-01-20T13:27:40Z</time>
      </trkpt>
      <trkpt lat="44.38553" lon="1.25262">
        <ele>215.95</ele>
        <time>2024-01-20T13:27:51Z</time>
      </trkpt>
      <trkpt lat="44.38559" lon="1.25274">
        <ele>215.95</ele>
        <time>2024-01-20T13:27:59Z</time>
      </trkpt>
      <trkpt lat="44.38563" lon="1.25286">
        <ele>215.95</ele>
        <time>2024-01-20T13:28:08Z</time>
      </trkpt>
      <trkpt lat="44.3857" lon="1.25296">
        <ele>215.95</ele>
        <time>2024-01-20T13:28:18Z</time>
      </trkpt>
      <trkpt lat="44.38577" lon="1.25307">
        <ele>216.43</ele>
        <time>2024-01-20T13:28:27Z</time>
      </trkpt>
      <trkpt lat="44.38586" lon="1.25319">
        <ele>216.91</ele>
        <time>2024-01-20T13:28:36Z</time>
      </trkpt>
      <trkpt lat="44.38594" lon="1.25334">
        <ele>216.91</ele>
        <time>2024-01-20T13:28:47Z</time>
      </trkpt>
      <trkpt lat="44.38602" lon="1.25346">
        <ele>217.4</ele>
        <time>2024-01-20T13:29:07Z</time>
      </trkpt>
      <trkpt lat="44.38614" lon="1.25353">
        <ele>217.4</ele>
        <time>2024-01-20T13:29:17Z</time>
      </trkpt>
      <trkpt lat="44.38623" lon="1.25364">
        <ele>217.88</ele>
        <time>2024-01-20T13:29:30Z</time>
      </trkpt>
      <trkpt lat="44.38632" lon="1.25371">
        <ele>217.88</ele>
        <time>2024-01-20T13:29:40Z</time>
      </trkpt>
      <trkpt lat="44.38641" lon="1.25381">
        <ele>217.88</ele>
        <time>2024-01-20T13:29:50Z</time>
      </trkpt>
      <trkpt lat="44.3865" lon="1.25393">
        <ele>218.36</ele>
        <time>2024-01-20T13:29:59Z</time>
      </trkpt>
      <trkpt lat="44.38661" lon="1.25406">
        <ele>218.36</ele>
        <time>2024-01-20T13:30:09Z</time>
      </trkpt>
      <trkpt lat="44.38668" lon="1.25417">
        <ele>218.84</ele>
        <time>2024-01-20T13:30:18Z</time>
      </trkpt>
      <trkpt lat="44.38676" lon="1.2543">
        <ele>219.32</ele>
        <time>2024-01-20T13:30:28Z</time>
      </trkpt>
      <trkpt lat="44.38682" lon="1.25441">
        <ele>219.32</ele>
        <time>2024-01-20T13:30:36Z</time>
      </trkpt>
      <trkpt lat="44.38688" lon="1.25454">
        <ele>219.8</ele>
        <time>2024-01-20T13:30:44Z</time>
      </trkpt>
      <trkpt lat="44.38693" lon="1.25466">
        <ele>219.8</ele>
        <time>2024-01-20T13:30:52Z</time>
      </trkpt>
      <trkpt lat="44.38697" lon="1.2548">
        <ele>220.28</ele>
        <time>2024-01-20T13:31:02Z</time>
      </trkpt>
      <trkpt lat="44.38701" lon="1.25496">
        <ele>220.28</ele>
        <time>2024-01-20T13:31:11Z</time>
      </trkpt>
      <trkpt lat="44.38706" lon="1.25511">
        <ele>220.28</ele>
        <time>2024-01-20T13:31:20Z</time>
      </trkpt>
      <trkpt lat="44.38708" lon="1.25527">
        <ele>220.76</ele>
        <time>2024-01-20T13:31:30Z</time>
      </trkpt>
      <trkpt lat="44.38711" lon="1.25541">
        <ele>220.76</ele>
        <time>2024-01-20T13:31:39Z</time>
      </trkpt>
      <trkpt lat="44.38713" lon="1.25558">
        <ele>220.76</ele>
        <time>2024-01-20T13:31:49Z</time>
      </trkpt>
      <trkpt lat="44.38716" lon="1.25576">
        <ele>221.24</ele>
        <time>2024-01-20T13:31:59Z</time>
      </trkpt>
      <trkpt lat="44.3872" lon="1.2559">
        <ele>221.24</ele>
        <time>2024-01-20T13:32:08Z</time>
      </trkpt>
      <trkpt lat="44.38721" lon="1.25607">
        <ele>221.72</ele>
        <time>2024-01-20T13:32:18Z</time>
      </trkpt>
      <trkpt lat="44.38723" lon="1.25622">
        <ele>221.72</ele>
        <time>2024-01-20T13:32:27Z</time>
      </trkpt>
      <trkpt lat="44.38728" lon="1.25635">
        <ele>222.68</ele>
        <time>2024-01-20T13:32:37Z</time>
      </trkpt>
      <trkpt lat="44.38736" lon="1.25633">
        <ele>224.12</ele>
        <time>2024-01-20T13:32:56Z</time>
      </trkpt>
      <trkpt lat="44.38737" lon="1.25621">
        <ele>226.05</ele>
        <time>2024-01-20T13:33:07Z</time>
      </trkpt>
      <trkpt lat="44.38743" lon="1.25607">
        <ele>227.49</ele>
        <time>2024-01-20T13:33:19Z</time>
      </trkpt>
      <trkpt lat="44.38747" lon="1.25594">
        <ele>229.41</ele>
        <time>2024-01-20T13:33:32Z</time>
      </trkpt>
      <trkpt lat="44.38751" lon="1.2558">
        <ele>231.33</ele>
        <time>2024-01-20T13:33:48Z</time>
      </trkpt>
      <trkpt lat="44.38755" lon="1.25566">
        <ele>234.22</ele>
        <time>2024-01-20T13:34:05Z</time>
      </trkpt>
      <trkpt lat="44.38758" lon="1.25551">
        <ele>237.58</ele>
        <time>2024-01-20T13:34:23Z</time>
      </trkpt>
      <trkpt lat="44.38759" lon="1.25537">
        <ele>239.51</ele>
        <time>2024-01-20T13:34:38Z</time>
      </trkpt>
      <trkpt lat="44.38763" lon="1.25526">
        <ele>241.43</ele>
        <time>2024-01-20T13:35:01Z</time>
      </trkpt>
      <trkpt lat="44.38765" lon="1.25512">
        <ele>244.31</ele>
        <time>2024-01-20T13:35:18Z</time>
      </trkpt>
      <trkpt lat="44.38769" lon="1.25499">
        <ele>247.2</ele>
        <time>2024-01-20T13:35:36Z</time>
      </trkpt>
      <trkpt lat="44.38768" lon="1.25488">
        <ele>249.12</ele>
        <time>2024-01-20T13:35:53Z</time>
      </trkpt>
      <trkpt lat="44.38771" lon="1.25474">
        <ele>251.52</ele>
        <time>2024-01-20T13:36:10Z</time>
      </trkpt>
      <trkpt lat="44.38774" lon="1.2546">
        <ele>252.48</ele>
        <time>2024-01-20T13:36:23Z</time>
      </trkpt>
      <trkpt lat="44.38773" lon="1.25447">
        <ele>254.89</ele>
        <time>2024-01-20T13:36:40Z</time>
      </trkpt>
      <trkpt lat="44.3877" lon="1.25432">
        <ele>256.33</ele>
        <time>2024-01-20T13:36:56Z</time>
      </trkpt>
      <trkpt lat="44.38767" lon="1.2542">
        <ele>258.25</ele>
        <time>2024-01-20T13:37:10Z</time>
      </trkpt>
      <trkpt lat="44.38765" lon="1.25407">
        <ele>260.17</ele>
        <time>2024-01-20T13:37:23Z</time>
      </trkpt>
      <trkpt lat="44.38762" lon="1.25394">
        <ele>261.14</ele>
        <time>2024-01-20T13:37:36Z</time>
      </trkpt>
      <trkpt lat="44.3876" lon="1.2538">
        <ele>263.06</ele>
        <time>2024-01-20T13:37:52Z</time>
      </trkpt>
      <trkpt lat="44.38761" lon="1.25366">
        <ele>263.54</ele>
        <time>2024-01-20T13:38:04Z</time>
      </trkpt>
      <trkpt lat="44.3876" lon="1.25354">
        <ele>264.02</ele>
        <time>2024-01-20T13:38:15Z</time>
      </trkpt>
      <trkpt lat="44.38759" lon="1.25338">
        <ele>264.98</ele>
        <time>2024-01-20T13:38:26Z</time>
      </trkpt>
      <trkpt lat="44.38761" lon="1.25324">
        <ele>265.94</ele>
        <time>2024-01-20T13:38:37Z</time>
      </trkpt>
      <trkpt lat="44.38764" lon="1.25312">
        <ele>266.9</ele>
        <time>2024-01-20T13:38:47Z</time>
      </trkpt>
      <trkpt lat="44.38765" lon="1.25298">
        <ele>267.38</ele>
        <time>2024-01-20T13:38:59Z</time>
      </trkpt>
      <trkpt lat="44.38765" lon="1.25285">
        <ele>268.35</ele>
        <time>2024-01-20T13:39:09Z</time>
      </trkpt>
      <trkpt lat="44.38772" lon="1.2528">
        <ele>268.83</ele>
        <time>2024-01-20T13:39:22Z</time>
      </trkpt>
      <trkpt lat="44.38781" lon="1.25276">
        <ele>268.83</ele>
        <time>2024-01-20T13:39:31Z</time>
      </trkpt>
      <trkpt lat="44.3879" lon="1.25271">
        <ele>267.86</ele>
        <time>2024-01-20T13:39:41Z</time>
      </trkpt>
      <trkpt lat="44.38799" lon="1.25266">
        <ele>266.9</ele>
        <time>2024-01-20T13:39:50Z</time>
      </trkpt>
      <trkpt lat="44.3881" lon="1.25264">
        <ele>265.94</ele>
        <time>2024-01-20T13:40:01Z</time>
      </trkpt>
      <trkpt lat="44.3882" lon="1.25267">
        <ele>264.5</ele>
        <time>2024-01-20T13:40:14Z</time>
      </trkpt>
      <trkpt lat="44.38829" lon="1.25272">
        <ele>264.5</ele>
        <time>2024-01-20T13:40:25Z</time>
      </trkpt>
      <trkpt lat="44.38839" lon="1.25273">
        <ele>264.98</ele>
        <time>2024-01-20T13:40:36Z</time>
      </trkpt>
      <trkpt lat="44.38849" lon="1.25269">
        <ele>265.94</ele>
        <time>2024-01-20T13:40:46Z</time>
      </trkpt>
      <trkpt lat="44.38857" lon="1.25266">
        <ele>265.94</ele>
        <time>2024-01-20T13:41:17Z</time>
      </trkpt>
      <trkpt lat="44.38865" lon="1.25259">
        <ele>265.94</ele>
        <time>2024-01-20T13:41:28Z</time>
      </trkpt>
      <trkpt lat="44.38875" lon="1.25251">
        <ele>264.98</ele>
        <time>2024-01-20T13:41:39Z</time>
      </trkpt>
      <trkpt lat="44.38885" lon="1.25245">
        <ele>265.94</ele>
        <time>2024-01-20T13:41:52Z</time>
      </trkpt>
      <trkpt lat="44.38894" lon="1.25242">
        <ele>266.9</ele>
        <time>2024-01-20T13:42:03Z</time>
      </trkpt>
      <trkpt lat="44.38904" lon="1.25241">
        <ele>267.86</ele>
        <time>2024-01-20T13:42:13Z</time>
      </trkpt>
      <trkpt lat="44.38915" lon="1.25243">
        <ele>268.83</ele>
        <time>2024-01-20T13:42:23Z</time>
      </trkpt>
      <trkpt lat="44.38924" lon="1.25243">
        <ele>268.83</ele>
        <time>2024-01-20T13:42:33Z</time>
      </trkpt>
      <trkpt lat="44.38934" lon="1.25245">
        <ele>269.31</ele>
        <time>2024-01-20T13:42:43Z</time>
      </trkpt>
      <trkpt lat="44.38944" lon="1.25244">
        <ele>270.75</ele>
        <time>2024-01-20T13:42:55Z</time>
      </trkpt>
      <trkpt lat="44.38952" lon="1.25242">
        <ele>270.75</ele>
        <time>2024-01-20T13:43:07Z</time>
      </trkpt>
      <trkpt lat="44.3896" lon="1.25239">
        <ele>270.75</ele>
        <time>2024-01-20T13:43:22Z</time>
      </trkpt>
      <trkpt lat="44.38957" lon="1.25236">
        <ele>270.75</ele>
        <time>2024-01-20T13:48:46Z</time>
      </trkpt>
      <trkpt lat="44.38968" lon="1.25236">
        <ele>270.75</ele>
        <time>2024-01-20T13:49:02Z</time>
      </trkpt>
      <trkpt lat="44.38977" lon="1.25232">
        <ele>270.75</ele>
        <time>2024-01-20T13:49:11Z</time>
      </trkpt>
      <trkpt lat="44.38985" lon="1.25226">
        <ele>270.75</ele>
        <time>2024-01-20T13:49:20Z</time>
      </trkpt>
      <trkpt lat="44.38992" lon="1.25217">
        <ele>271.71</ele>
        <time>2024-01-20T13:49:29Z</time>
      </trkpt>
      <trkpt lat="44.38999" lon="1.25209">
        <ele>272.19</ele>
        <time>2024-01-20T13:49:38Z</time>
      </trkpt>
      <trkpt lat="44.39007" lon="1.25202">
        <ele>272.19</ele>
        <time>2024-01-20T13:49:46Z</time>
      </trkpt>
      <trkpt lat="44.39015" lon="1.25194">
        <ele>272.67</ele>
        <time>2024-01-20T13:49:55Z</time>
      </trkpt>
      <trkpt lat="44.39023" lon="1.25186">
        <ele>273.63</ele>
        <time>2024-01-20T13:50:05Z</time>
      </trkpt>
      <trkpt lat="44.39031" lon="1.25178">
        <ele>274.59</ele>
        <time>2024-01-20T13:50:16Z</time>
      </trkpt>
      <trkpt lat="44.3904" lon="1.25172">
        <ele>275.07</ele>
        <time>2024-01-20T13:50:26Z</time>
      </trkpt>
      <trkpt lat="44.39048" lon="1.25167">
        <ele>275.07</ele>
        <time>2024-01-20T13:50:35Z</time>
      </trkpt>
      <trkpt lat="44.39057" lon="1.25159">
        <ele>276.04</ele>
        <time>2024-01-20T13:50:46Z</time>
      </trkpt>
      <trkpt lat="44.39066" lon="1.25153">
        <ele>277.48</ele>
        <time>2024-01-20T13:50:58Z</time>
      </trkpt>
      <trkpt lat="44.39074" lon="1.25146">
        <ele>278.44</ele>
        <time>2024-01-20T13:51:10Z</time>
      </trkpt>
      <trkpt lat="44.39083" lon="1.25143">
        <ele>278.44</ele>
        <time>2024-01-20T13:51:19Z</time>
      </trkpt>
      <trkpt lat="44.39093" lon="1.2514">
        <ele>278.44</ele>
        <time>2024-01-20T13:51:32Z</time>
      </trkpt>
      <trkpt lat="44.391" lon="1.25135">
        <ele>278.44</ele>
        <time>2024-01-20T13:51:43Z</time>
      </trkpt>
      <trkpt lat="44.3911" lon="1.2513">
        <ele>278.44</ele>
        <time>2024-01-20T13:51:53Z</time>
      </trkpt>
      <trkpt lat="44.3912" lon="1.25129">
        <ele>278.44</ele>
        <time>2024-01-20T13:52:07Z</time>
      </trkpt>
      <trkpt lat="44.39128" lon="1.25127">
        <ele>279.4</ele>
        <time>2024-01-20T13:52:15Z</time>
      </trkpt>
      <trkpt lat="44.39136" lon="1.2513">
        <ele>280.36</ele>
        <time>2024-01-20T13:52:24Z</time>
      </trkpt>
      <trkpt lat="44.39139" lon="1.25141">
        <ele>280.84</ele>
        <time>2024-01-20T13:52:44Z</time>
      </trkpt>
      <trkpt lat="44.39143" lon="1.25152">
        <ele>280.84</ele>
        <time>2024-01-20T13:52:52Z</time>
      </trkpt>
      <trkpt lat="44.39149" lon="1.25165">
        <ele>280.84</ele>
        <time>2024-01-20T13:53:01Z</time>
      </trkpt>
      <trkpt lat="44.39153" lon="1.25178">
        <ele>280.84</ele>
        <time>2024-01-20T13:53:09Z</time>
      </trkpt>
      <trkpt lat="44.39158" lon="1.25189">
        <ele>281.8</ele>
        <time>2024-01-20T13:53:17Z</time>
      </trkpt>
      <trkpt lat="44.39164" lon="1.252">
        <ele>282.28</ele>
        <time>2024-01-20T13:53:26Z</time>
      </trkpt>
      <trkpt lat="44.39171" lon="1.25211">
        <ele>282.28</ele>
        <time>2024-01-20T13:53:34Z</time>
      </trkpt>
      <trkpt lat="44.39179" lon="1.25218">
        <ele>282.77</ele>
        <time>2024-01-20T13:53:42Z</time>
      </trkpt>
      <trkpt lat="44.39188" lon="1.25224">
        <ele>282.77</ele>
        <time>2024-01-20T13:53:50Z</time>
      </trkpt>
      <trkpt lat="44.39198" lon="1.25229">
        <ele>282.77</ele>
        <time>2024-01-20T13:53:58Z</time>
      </trkpt>
      <trkpt lat="44.39207" lon="1.25234">
        <ele>283.25</ele>
        <time>2024-01-20T13:54:06Z</time>
      </trkpt>
      <trkpt lat="44.39213" lon="1.25245">
        <ele>283.25</ele>
        <time>2024-01-20T13:54:14Z</time>
      </trkpt>
      <trkpt lat="44.39213" lon="1.25259">
        <ele>283.25</ele>
        <time>2024-01-20T13:54:22Z</time>
      </trkpt>
      <trkpt lat="44.39212" lon="1.25275">
        <ele>283.25</ele>
        <time>2024-01-20T13:54:31Z</time>
      </trkpt>
      <trkpt lat="44.39214" lon="1.2529">
        <ele>283.25</ele>
        <time>2024-01-20T13:54:40Z</time>
      </trkpt>
      <trkpt lat="44.39214" lon="1.25304">
        <ele>283.25</ele>
        <time>2024-01-20T13:54:48Z</time>
      </trkpt>
      <trkpt lat="44.39214" lon="1.25317">
        <ele>283.73</ele>
        <time>2024-01-20T13:54:56Z</time>
      </trkpt>
      <trkpt lat="44.39214" lon="1.25331">
        <ele>283.73</ele>
        <time>2024-01-20T13:55:05Z</time>
      </trkpt>
      <trkpt lat="44.39213" lon="1.25343">
        <ele>283.73</ele>
        <time>2024-01-20T13:55:12Z</time>
      </trkpt>
      <trkpt lat="44.39212" lon="1.25357">
        <ele>284.21</ele>
        <time>2024-01-20T13:55:20Z</time>
      </trkpt>
      <trkpt lat="44.39211" lon="1.2537">
        <ele>284.21</ele>
        <time>2024-01-20T13:55:28Z</time>
      </trkpt>
      <trkpt lat="44.39211" lon="1.25385">
        <ele>284.21</ele>
        <time>2024-01-20T13:55:37Z</time>
      </trkpt>
      <trkpt lat="44.39211" lon="1.25399">
        <ele>284.69</ele>
        <time>2024-01-20T13:55:46Z</time>
      </trkpt>
      <trkpt lat="44.39211" lon="1.25412">
        <ele>285.65</ele>
        <time>2024-01-20T13:55:55Z</time>
      </trkpt>
      <trkpt lat="44.3921" lon="1.25428">
        <ele>286.61</ele>
        <time>2024-01-20T13:56:05Z</time>
      </trkpt>
      <trkpt lat="44.39208" lon="1.25441">
        <ele>288.05</ele>
        <time>2024-01-20T13:56:15Z</time>
      </trkpt>
      <trkpt lat="44.39208" lon="1.25451">
        <ele>288.05</ele>
        <time>2024-01-20T13:56:28Z</time>
      </trkpt>
      <trkpt lat="44.39209" lon="1.25465">
        <ele>288.53</ele>
        <time>2024-01-20T13:56:37Z</time>
      </trkpt>
      <trkpt lat="44.39212" lon="1.25477">
        <ele>289.49</ele>
        <time>2024-01-20T13:56:46Z</time>
      </trkpt>
      <trkpt lat="44.39217" lon="1.2549">
        <ele>289.97</ele>
        <time>2024-01-20T13:56:56Z</time>
      </trkpt>
      <trkpt lat="44.39222" lon="1.25503">
        <ele>290.46</ele>
        <time>2024-01-20T13:57:05Z</time>
      </trkpt>
      <trkpt lat="44.39227" lon="1.25515">
        <ele>290.94</ele>
        <time>2024-01-20T13:57:14Z</time>
      </trkpt>
      <trkpt lat="44.39231" lon="1.25526">
        <ele>291.42</ele>
        <time>2024-01-20T13:57:23Z</time>
      </trkpt>
      <trkpt lat="44.39236" lon="1.25538">
        <ele>291.42</ele>
        <time>2024-01-20T13:57:31Z</time>
      </trkpt>
      <trkpt lat="44.3924" lon="1.25551">
        <ele>292.38</ele>
        <time>2024-01-20T13:57:40Z</time>
      </trkpt>
      <trkpt lat="44.39242" lon="1.25563">
        <ele>292.38</ele>
        <time>2024-01-20T13:57:48Z</time>
      </trkpt>
      <trkpt lat="44.39243" lon="1.25576">
        <ele>292.38</ele>
        <time>2024-01-20T13:57:56Z</time>
      </trkpt>
      <trkpt lat="44.39245" lon="1.2559">
        <ele>292.86</ele>
        <time>2024-01-20T13:58:05Z</time>
      </trkpt>
      <trkpt lat="44.39249" lon="1.25602">
        <ele>292.86</ele>
        <time>2024-01-20T13:58:13Z</time>
      </trkpt>
      <trkpt lat="44.39255" lon="1.25613">
        <ele>291.42</ele>
        <time>2024-01-20T13:58:22Z</time>
      </trkpt>
      <trkpt lat="44.39261" lon="1.25624">
        <ele>290.94</ele>
        <time>2024-01-20T13:58:32Z</time>
      </trkpt>
      <trkpt lat="44.39266" lon="1.25641">
        <ele>290.94</ele>
        <time>2024-01-20T13:58:46Z</time>
      </trkpt>
      <trkpt lat="44.39271" lon="1.25657">
        <ele>290.94</ele>
        <time>2024-01-20T13:58:56Z</time>
      </trkpt>
      <trkpt lat="44.39275" lon="1.25672">
        <ele>292.38</ele>
        <time>2024-01-20T13:59:05Z</time>
      </trkpt>
      <trkpt lat="44.39278" lon="1.25685">
        <ele>292.86</ele>
        <time>2024-01-20T13:59:13Z</time>
      </trkpt>
      <trkpt lat="44.3928" lon="1.25699">
        <ele>293.34</ele>
        <time>2024-01-20T13:59:21Z</time>
      </trkpt>
      <trkpt lat="44.39285" lon="1.25711">
        <ele>293.34</ele>
        <time>2024-01-20T13:59:30Z</time>
      </trkpt>
      <trkpt lat="44.39289" lon="1.25726">
        <ele>293.34</ele>
        <time>2024-01-20T13:59:39Z</time>
      </trkpt>
      <trkpt lat="44.39287" lon="1.25742">
        <ele>293.34</ele>
        <time>2024-01-20T13:59:49Z</time>
      </trkpt>
      <trkpt lat="44.39287" lon="1.25758">
        <ele>293.34</ele>
        <time>2024-01-20T13:59:59Z</time>
      </trkpt>
      <trkpt lat="44.39292" lon="1.25772">
        <ele>293.34</ele>
        <time>2024-01-20T14:00:09Z</time>
      </trkpt>
      <trkpt lat="44.39299" lon="1.25784">
        <ele>293.34</ele>
        <time>2024-01-20T14:00:18Z</time>
      </trkpt>
      <trkpt lat="44.39303" lon="1.25796">
        <ele>293.34</ele>
        <time>2024-01-20T14:00:26Z</time>
      </trkpt>
      <trkpt lat="44.39308" lon="1.25809">
        <ele>293.34</ele>
        <time>2024-01-20T14:00:34Z</time>
      </trkpt>
      <trkpt lat="44.39312" lon="1.25822">
        <ele>293.34</ele>
        <time>2024-01-20T14:00:43Z</time>
      </trkpt>
      <trkpt lat="44.39316" lon="1.25833">
        <ele>293.34</ele>
        <time>2024-01-20T14:00:51Z</time>
      </trkpt>
      <trkpt lat="44.3932" lon="1.25846">
        <ele>291.9</ele>
        <time>2024-01-20T14:00:59Z</time>
      </trkpt>
      <trkpt lat="44.39323" lon="1.25859">
        <ele>290.94</ele>
        <time>2024-01-20T14:01:07Z</time>
      </trkpt>
      <trkpt lat="44.39323" lon="1.25872">
        <ele>290.94</ele>
        <time>2024-01-20T14:01:16Z</time>
      </trkpt>
      <trkpt lat="44.39319" lon="1.25881">
        <ele>292.3</ele>
        <time>2024-01-20T14:01:25Z</time>
      </trkpt>
      <trkpt lat="44.39318" lon="1.25902">
        <ele>291.8</ele>
        <time>2024-01-20T14:01:34Z</time>
      </trkpt>
      <trkpt lat="44.39319" lon="1.25919">
        <ele>291.4</ele>
        <time>2024-01-20T14:01:44Z</time>
      </trkpt>
      <trkpt lat="44.39324" lon="1.25934">
        <ele>290.5</ele>
        <time>2024-01-20T14:01:56Z</time>
      </trkpt>
      <trkpt lat="44.3933" lon="1.25947">
        <ele>289.9</ele>
        <time>2024-01-20T14:02:09Z</time>
      </trkpt>
      <trkpt lat="44.39336" lon="1.2596">
        <ele>289.6</ele>
      </trkpt>
      <trkpt lat="44.39338" lon="1.25967">
        <ele>289.6</ele>
        <time>2024-01-20T14:02:21Z</time>
      </trkpt>
      <trkpt lat="44.39339" lon="1.25972">
        <ele>289.6</ele>
        <time>2024-01-20T14:02:33Z</time>
      </trkpt>
      <trkpt lat="44.39339" lon="1.25976">
        <ele>289.5</ele>
      </trkpt>
      <trkpt lat="44.39342" lon="1.25984">
        <ele>289.6</ele>
        <time>2024-01-20T14:02:43Z</time>
      </trkpt>
      <trkpt lat="44.39346" lon="1.25995">
        <ele>290</ele>
        <time>2024-01-20T14:02:52Z</time>
      </trkpt>
      <trkpt lat="44.39355" lon="1.26001">
        <ele>291.1</ele>
        <time>2024-01-20T14:03:01Z</time>
      </trkpt>
      <trkpt lat="44.39366" lon="1.26002">
        <ele>290.94</ele>
        <time>2024-01-20T14:03:11Z</time>
      </trkpt>
      <trkpt lat="44.39373" lon="1.26014">
        <ele>291.42</ele>
        <time>2024-01-20T14:03:20Z</time>
      </trkpt>
      <trkpt lat="44.39378" lon="1.26026">
        <ele>291.9</ele>
        <time>2024-01-20T14:03:33Z</time>
      </trkpt>
      <trkpt lat="44.39381" lon="1.2604">
        <ele>291.9</ele>
        <time>2024-01-20T14:03:41Z</time>
      </trkpt>
      <trkpt lat="44.39382" lon="1.26053">
        <ele>292.38</ele>
        <time>2024-01-20T14:03:48Z</time>
      </trkpt>
      <trkpt lat="44.39385" lon="1.26068">
        <ele>293.34</ele>
        <time>2024-01-20T14:03:57Z</time>
      </trkpt>
      <trkpt lat="44.39386" lon="1.26082">
        <ele>294.3</ele>
        <time>2024-01-20T14:04:06Z</time>
      </trkpt>
      <trkpt lat="44.39389" lon="1.26096">
        <ele>295.26</ele>
        <time>2024-01-20T14:04:15Z</time>
      </trkpt>
      <trkpt lat="44.39392" lon="1.26107">
        <ele>295.74</ele>
        <time>2024-01-20T14:04:28Z</time>
      </trkpt>
      <trkpt lat="44.39393" lon="1.26121">
        <ele>295.74</ele>
        <time>2024-01-20T14:04:37Z</time>
      </trkpt>
      <trkpt lat="44.39393" lon="1.26136">
        <ele>294.3</ele>
        <time>2024-01-20T14:04:45Z</time>
      </trkpt>
      <trkpt lat="44.39392" lon="1.2615">
        <ele>293.82</ele>
        <time>2024-01-20T14:04:52Z</time>
      </trkpt>
      <trkpt lat="44.3939" lon="1.26165">
        <ele>293.82</ele>
        <time>2024-01-20T14:05:01Z</time>
      </trkpt>
      <trkpt lat="44.39387" lon="1.26179">
        <ele>293.82</ele>
        <time>2024-01-20T14:05:10Z</time>
      </trkpt>
      <trkpt lat="44.39378" lon="1.26189">
        <ele>293.82</ele>
        <time>2024-01-20T14:05:19Z</time>
      </trkpt>
      <trkpt lat="44.39371" lon="1.26202">
        <ele>293.82</ele>
        <time>2024-01-20T14:05:29Z</time>
      </trkpt>
      <trkpt lat="44.39366" lon="1.26215">
        <ele>293.82</ele>
        <time>2024-01-20T14:05:37Z</time>
      </trkpt>
      <trkpt lat="44.39362" lon="1.26229">
        <ele>293.82</ele>
        <time>2024-01-20T14:05:46Z</time>
      </trkpt>
      <trkpt lat="44.39358" lon="1.26241">
        <ele>293.82</ele>
        <time>2024-01-20T14:05:55Z</time>
      </trkpt>
      <trkpt lat="44.39357" lon="1.26253">
        <ele>293.82</ele>
        <time>2024-01-20T14:06:05Z</time>
      </trkpt>
      <trkpt lat="44.39354" lon="1.26267">
        <ele>293.82</ele>
        <time>2024-01-20T14:06:14Z</time>
      </trkpt>
      <trkpt lat="44.39351" lon="1.26281">
        <ele>293.82</ele>
        <time>2024-01-20T14:06:22Z</time>
      </trkpt>
      <trkpt lat="44.39347" lon="1.26294">
        <ele>293.82</ele>
        <time>2024-01-20T14:06:30Z</time>
      </trkpt>
      <trkpt lat="44.39344" lon="1.26307">
        <ele>293.82</ele>
        <time>2024-01-20T14:06:41Z</time>
      </trkpt>
      <trkpt lat="44.39339" lon="1.26321">
        <ele>292.86</ele>
        <time>2024-01-20T14:06:49Z</time>
      </trkpt>
      <trkpt lat="44.39337" lon="1.26332">
        <ele>292.86</ele>
        <time>2024-01-20T14:06:54Z</time>
      </trkpt>
      <trkpt lat="44.39335" lon="1.26341">
        <ele>292.86</ele>
        <time>2024-01-20T14:07:01Z</time>
      </trkpt>
      <trkpt lat="44.39332" lon="1.26354">
        <ele>292.38</ele>
        <time>2024-01-20T14:07:10Z</time>
      </trkpt>
      <trkpt lat="44.39329" lon="1.26368">
        <ele>292.38</ele>
        <time>2024-01-20T14:07:19Z</time>
      </trkpt>
      <trkpt lat="44.39323" lon="1.2638">
        <ele>292.38</ele>
        <time>2024-01-20T14:07:28Z</time>
      </trkpt>
      <trkpt lat="44.39317" lon="1.26393">
        <ele>292.38</ele>
        <time>2024-01-20T14:07:39Z</time>
      </trkpt>
      <trkpt lat="44.39312" lon="1.26406">
        <ele>292.38</ele>
        <time>2024-01-20T14:07:48Z</time>
      </trkpt>
      <trkpt lat="44.39307" lon="1.26417">
        <ele>292.38</ele>
        <time>2024-01-20T14:07:56Z</time>
      </trkpt>
      <trkpt lat="44.39303" lon="1.2643">
        <ele>291.9</ele>
        <time>2024-01-20T14:08:04Z</time>
      </trkpt>
      <trkpt lat="44.39299" lon="1.26441">
        <ele>291.9</ele>
        <time>2024-01-20T14:08:13Z</time>
      </trkpt>
      <trkpt lat="44.39294" lon="1.26449">
        <ele>291.9</ele>
        <time>2024-01-20T14:08:20Z</time>
      </trkpt>
      <trkpt lat="44.39286" lon="1.26458">
        <ele>291.42</ele>
        <time>2024-01-20T14:08:29Z</time>
      </trkpt>
      <trkpt lat="44.39278" lon="1.26467">
        <ele>291.42</ele>
        <time>2024-01-20T14:08:37Z</time>
      </trkpt>
      <trkpt lat="44.39269" lon="1.26474">
        <ele>291.42</ele>
        <time>2024-01-20T14:08:45Z</time>
      </trkpt>
      <trkpt lat="44.39259" lon="1.26481">
        <ele>291.42</ele>
        <time>2024-01-20T14:08:53Z</time>
      </trkpt>
      <trkpt lat="44.39251" lon="1.26488">
        <ele>292.86</ele>
        <time>2024-01-20T14:09:09Z</time>
      </trkpt>
      <trkpt lat="44.39242" lon="1.26493">
        <ele>292.86</ele>
        <time>2024-01-20T14:09:16Z</time>
      </trkpt>
      <trkpt lat="44.39233" lon="1.26498">
        <ele>292.86</ele>
        <time>2024-01-20T14:09:23Z</time>
      </trkpt>
      <trkpt lat="44.39224" lon="1.26504">
        <ele>292.86</ele>
        <time>2024-01-20T14:09:30Z</time>
      </trkpt>
      <trkpt lat="44.39215" lon="1.26508">
        <ele>292.86</ele>
        <time>2024-01-20T14:09:38Z</time>
      </trkpt>
      <trkpt lat="44.39206" lon="1.26514">
        <ele>292.86</ele>
        <time>2024-01-20T14:09:46Z</time>
      </trkpt>
      <trkpt lat="44.39197" lon="1.26519">
        <ele>292.86</ele>
        <time>2024-01-20T14:09:54Z</time>
      </trkpt>
      <trkpt lat="44.39188" lon="1.26525">
        <ele>292.86</ele>
        <time>2024-01-20T14:10:02Z</time>
      </trkpt>
      <trkpt lat="44.39179" lon="1.26532">
        <ele>290.94</ele>
        <time>2024-01-20T14:10:09Z</time>
      </trkpt>
      <trkpt lat="44.39169" lon="1.26539">
        <ele>290.94</ele>
        <time>2024-01-20T14:10:17Z</time>
      </trkpt>
      <trkpt lat="44.3916" lon="1.26542">
        <ele>289.97</ele>
        <time>2024-01-20T14:10:25Z</time>
      </trkpt>
      <trkpt lat="44.3915" lon="1.26544">
        <ele>289.49</ele>
        <time>2024-01-20T14:10:33Z</time>
      </trkpt>
      <trkpt lat="44.3914" lon="1.26545">
        <ele>289.49</ele>
        <time>2024-01-20T14:10:40Z</time>
      </trkpt>
      <trkpt lat="44.39131" lon="1.26546">
        <ele>289.49</ele>
        <time>2024-01-20T14:10:47Z</time>
      </trkpt>
      <trkpt lat="44.3912" lon="1.26545">
        <ele>289.49</ele>
        <time>2024-01-20T14:10:55Z</time>
      </trkpt>
      <trkpt lat="44.39111" lon="1.26545">
        <ele>289.49</ele>
        <time>2024-01-20T14:11:02Z</time>
      </trkpt>
      <trkpt lat="44.39101" lon="1.26544">
        <ele>289.01</ele>
        <time>2024-01-20T14:11:09Z</time>
      </trkpt>
      <trkpt lat="44.39091" lon="1.26543">
        <ele>289.01</ele>
        <time>2024-01-20T14:11:18Z</time>
      </trkpt>
      <trkpt lat="44.39081" lon="1.26545">
        <ele>289.01</ele>
        <time>2024-01-20T14:11:26Z</time>
      </trkpt>
      <trkpt lat="44.39071" lon="1.26543">
        <ele>289.01</ele>
        <time>2024-01-20T14:11:35Z</time>
      </trkpt>
      <trkpt lat="44.39062" lon="1.26541">
        <ele>289.01</ele>
        <time>2024-01-20T14:11:42Z</time>
      </trkpt>
      <trkpt lat="44.39052" lon="1.26542">
        <ele>289.01</ele>
        <time>2024-01-20T14:11:50Z</time>
      </trkpt>
      <trkpt lat="44.39045" lon="1.26552">
        <ele>288.53</ele>
        <time>2024-01-20T14:11:59Z</time>
      </trkpt>
      <trkpt lat="44.39037" lon="1.26556">
        <ele>288.53</ele>
        <time>2024-01-20T14:12:08Z</time>
      </trkpt>
      <trkpt lat="44.39027" lon="1.26557">
        <ele>288.05</ele>
        <time>2024-01-20T14:12:17Z</time>
      </trkpt>
      <trkpt lat="44.39018" lon="1.26558">
        <ele>287.57</ele>
        <time>2024-01-20T14:12:25Z</time>
      </trkpt>
      <trkpt lat="44.39008" lon="1.26561">
        <ele>286.13</ele>
        <time>2024-01-20T14:12:34Z</time>
      </trkpt>
      <trkpt lat="44.38998" lon="1.2657">
        <ele>285.65</ele>
        <time>2024-01-20T14:12:43Z</time>
      </trkpt>
      <trkpt lat="44.38989" lon="1.26576">
        <ele>285.17</ele>
        <time>2024-01-20T14:12:52Z</time>
      </trkpt>
      <trkpt lat="44.38979" lon="1.26578">
        <ele>284.21</ele>
        <time>2024-01-20T14:13:01Z</time>
      </trkpt>
      <trkpt lat="44.38969" lon="1.26579">
        <ele>284.21</ele>
        <time>2024-01-20T14:13:10Z</time>
      </trkpt>
      <trkpt lat="44.38958" lon="1.2658">
        <ele>282.77</ele>
        <time>2024-01-20T14:13:21Z</time>
      </trkpt>
      <trkpt lat="44.38949" lon="1.26585">
        <ele>281.32</ele>
        <time>2024-01-20T14:13:32Z</time>
      </trkpt>
      <trkpt lat="44.38942" lon="1.26599">
        <ele>278.92</ele>
        <time>2024-01-20T14:13:43Z</time>
      </trkpt>
      <trkpt lat="44.38939" lon="1.26613">
        <ele>277</ele>
        <time>2024-01-20T14:13:53Z</time>
      </trkpt>
      <trkpt lat="44.38931" lon="1.2662">
        <ele>275.56</ele>
        <time>2024-01-20T14:14:02Z</time>
      </trkpt>
      <trkpt lat="44.3892" lon="1.26618">
        <ele>274.11</ele>
        <time>2024-01-20T14:14:13Z</time>
      </trkpt>
      <trkpt lat="44.38911" lon="1.26611">
        <ele>273.63</ele>
        <time>2024-01-20T14:14:22Z</time>
      </trkpt>
      <trkpt lat="44.38901" lon="1.26609">
        <ele>274.11</ele>
        <time>2024-01-20T14:14:32Z</time>
      </trkpt>
      <trkpt lat="44.38893" lon="1.26615">
        <ele>274.11</ele>
        <time>2024-01-20T14:14:43Z</time>
      </trkpt>
      <trkpt lat="44.38883" lon="1.26621">
        <ele>275.56</ele>
        <time>2024-01-20T14:14:54Z</time>
      </trkpt>
      <trkpt lat="44.38873" lon="1.26625">
        <ele>277</ele>
        <time>2024-01-20T14:15:05Z</time>
      </trkpt>
      <trkpt lat="44.38866" lon="1.26629">
        <ele>277</ele>
        <time>2024-01-20T14:15:14Z</time>
      </trkpt>
      <trkpt lat="44.38857" lon="1.26629">
        <ele>277</ele>
        <time>2024-01-20T14:15:23Z</time>
      </trkpt>
      <trkpt lat="44.38848" lon="1.26626">
        <ele>275.56</ele>
        <time>2024-01-20T14:15:31Z</time>
      </trkpt>
      <trkpt lat="44.3884" lon="1.2662">
        <ele>274.59</ele>
        <time>2024-01-20T14:15:39Z</time>
      </trkpt>
      <trkpt lat="44.38831" lon="1.26616">
        <ele>274.59</ele>
        <time>2024-01-20T14:15:47Z</time>
      </trkpt>
      <trkpt lat="44.38822" lon="1.26614">
        <ele>274.59</ele>
        <time>2024-01-20T14:15:55Z</time>
      </trkpt>
      <trkpt lat="44.38813" lon="1.26614">
        <ele>274.59</ele>
        <time>2024-01-20T14:16:03Z</time>
      </trkpt>
      <trkpt lat="44.38802" lon="1.26617">
        <ele>274.59</ele>
        <time>2024-01-20T14:16:12Z</time>
      </trkpt>
      <trkpt lat="44.38792" lon="1.26619">
        <ele>274.59</ele>
        <time>2024-01-20T14:16:21Z</time>
      </trkpt>
      <trkpt lat="44.38783" lon="1.26619">
        <ele>277</ele>
        <time>2024-01-20T14:16:33Z</time>
      </trkpt>
      <trkpt lat="44.38775" lon="1.26625">
        <ele>277.96</ele>
        <time>2024-01-20T14:16:45Z</time>
      </trkpt>
      <trkpt lat="44.38771" lon="1.26636">
        <ele>277.96</ele>
        <time>2024-01-20T14:16:55Z</time>
      </trkpt>
      <trkpt lat="44.38771" lon="1.26649">
        <ele>276.52</ele>
        <time>2024-01-20T14:17:06Z</time>
      </trkpt>
      <trkpt lat="44.38771" lon="1.26662">
        <ele>275.56</ele>
        <time>2024-01-20T14:17:16Z</time>
      </trkpt>
      <trkpt lat="44.38769" lon="1.26676">
        <ele>274.11</ele>
        <time>2024-01-20T14:17:27Z</time>
      </trkpt>
      <trkpt lat="44.38766" lon="1.26688">
        <ele>272.67</ele>
        <time>2024-01-20T14:17:37Z</time>
      </trkpt>
      <trkpt lat="44.38761" lon="1.26699">
        <ele>271.23</ele>
        <time>2024-01-20T14:17:47Z</time>
      </trkpt>
      <trkpt lat="44.38755" lon="1.2671">
        <ele>268.83</ele>
        <time>2024-01-20T14:17:57Z</time>
      </trkpt>
      <trkpt lat="44.38747" lon="1.2672">
        <ele>266.9</ele>
        <time>2024-01-20T14:18:09Z</time>
      </trkpt>
      <trkpt lat="44.38741" lon="1.26732">
        <ele>265.46</ele>
        <time>2024-01-20T14:18:27Z</time>
      </trkpt>
      <trkpt lat="44.38739" lon="1.26745">
        <ele>264.02</ele>
        <time>2024-01-20T14:18:36Z</time>
      </trkpt>
      <trkpt lat="44.3874" lon="1.2676">
        <ele>262.58</ele>
        <time>2024-01-20T14:18:46Z</time>
      </trkpt>
      <trkpt lat="44.38735" lon="1.26776">
        <ele>260.17</ele>
        <time>2024-01-20T14:19:00Z</time>
      </trkpt>
      <trkpt lat="44.38731" lon="1.26793">
        <ele>258.73</ele>
        <time>2024-01-20T14:19:11Z</time>
      </trkpt>
      <trkpt lat="44.38732" lon="1.26813">
        <ele>256.81</ele>
        <time>2024-01-20T14:19:23Z</time>
      </trkpt>
      <trkpt lat="44.38738" lon="1.26832">
        <ele>254.89</ele>
        <time>2024-01-20T14:19:38Z</time>
      </trkpt>
      <trkpt lat="44.38747" lon="1.26847">
        <ele>252</ele>
        <time>2024-01-20T14:19:52Z</time>
      </trkpt>
      <trkpt lat="44.38757" lon="1.2686">
        <ele>250.08</ele>
        <time>2024-01-20T14:20:06Z</time>
      </trkpt>
      <trkpt lat="44.38767" lon="1.2687">
        <ele>248.64</ele>
        <time>2024-01-20T14:20:18Z</time>
      </trkpt>
      <trkpt lat="44.38778" lon="1.26881">
        <ele>247.2</ele>
        <time>2024-01-20T14:20:30Z</time>
      </trkpt>
      <trkpt lat="44.38786" lon="1.26893">
        <ele>245.75</ele>
        <time>2024-01-20T14:20:42Z</time>
      </trkpt>
      <trkpt lat="44.38792" lon="1.26908">
        <ele>244.31</ele>
        <time>2024-01-20T14:20:54Z</time>
      </trkpt>
      <trkpt lat="44.38794" lon="1.26923">
        <ele>242.39</ele>
        <time>2024-01-20T14:21:06Z</time>
      </trkpt>
      <trkpt lat="44.38793" lon="1.2694">
        <ele>241.91</ele>
        <time>2024-01-20T14:21:19Z</time>
      </trkpt>
      <trkpt lat="44.38795" lon="1.26956">
        <ele>240.95</ele>
        <time>2024-01-20T14:21:31Z</time>
      </trkpt>
      <trkpt lat="44.38795" lon="1.26974">
        <ele>240.95</ele>
        <time>2024-01-20T14:21:41Z</time>
      </trkpt>
      <trkpt lat="44.38798" lon="1.26996">
        <ele>239.99</ele>
        <time>2024-01-20T14:21:54Z</time>
      </trkpt>
      <trkpt lat="44.38797" lon="1.27012">
        <ele>239.99</ele>
        <time>2024-01-20T14:22:04Z</time>
      </trkpt>
      <trkpt lat="44.38796" lon="1.27029">
        <ele>239.99</ele>
        <time>2024-01-20T14:22:14Z</time>
      </trkpt>
      <trkpt lat="44.38797" lon="1.27046">
        <ele>239.51</ele>
        <time>2024-01-20T14:22:23Z</time>
      </trkpt>
      <trkpt lat="44.38798" lon="1.27063">
        <ele>238.54</ele>
        <time>2024-01-20T14:22:33Z</time>
      </trkpt>
      <trkpt lat="44.38798" lon="1.27077">
        <ele>237.58</ele>
        <time>2024-01-20T14:22:42Z</time>
      </trkpt>
      <trkpt lat="44.38799" lon="1.27093">
        <ele>236.62</ele>
        <time>2024-01-20T14:22:51Z</time>
      </trkpt>
      <trkpt lat="44.38802" lon="1.27106">
        <ele>235.66</ele>
        <time>2024-01-20T14:23:01Z</time>
      </trkpt>
      <trkpt lat="44.38801" lon="1.27122">
        <ele>235.18</ele>
        <time>2024-01-20T14:23:10Z</time>
      </trkpt>
      <trkpt lat="44.388" lon="1.27137">
        <ele>235.18</ele>
        <time>2024-01-20T14:23:18Z</time>
      </trkpt>
      <trkpt lat="44.38798" lon="1.27153">
        <ele>234.22</ele>
        <time>2024-01-20T14:23:27Z</time>
      </trkpt>
      <trkpt lat="44.38792" lon="1.27164">
        <ele>233.74</ele>
        <time>2024-01-20T14:23:35Z</time>
      </trkpt>
      <trkpt lat="44.38785" lon="1.27174">
        <ele>233.26</ele>
        <time>2024-01-20T14:23:43Z</time>
      </trkpt>
      <trkpt lat="44.38777" lon="1.27182">
        <ele>233.26</ele>
        <time>2024-01-20T14:23:53Z</time>
      </trkpt>
      <trkpt lat="44.3877" lon="1.2719">
        <ele>233.26</ele>
        <time>2024-01-20T14:24:02Z</time>
      </trkpt>
      <trkpt lat="44.38761" lon="1.27197">
        <ele>233.26</ele>
        <time>2024-01-20T14:24:11Z</time>
      </trkpt>
      <trkpt lat="44.38752" lon="1.27203">
        <ele>233.26</ele>
        <time>2024-01-20T14:24:19Z</time>
      </trkpt>
      <trkpt lat="44.38744" lon="1.27208">
        <ele>233.26</ele>
        <time>2024-01-20T14:24:27Z</time>
      </trkpt>
      <trkpt lat="44.38735" lon="1.27213">
        <ele>233.26</ele>
        <time>2024-01-20T14:24:35Z</time>
      </trkpt>
      <trkpt lat="44.38726" lon="1.27218">
        <ele>233.26</ele>
        <time>2024-01-20T14:24:42Z</time>
      </trkpt>
      <trkpt lat="44.38716" lon="1.27223">
        <ele>233.26</ele>
        <time>2024-01-20T14:24:50Z</time>
      </trkpt>
      <trkpt lat="44.38706" lon="1.27228">
        <ele>233.26</ele>
        <time>2024-01-20T14:24:58Z</time>
      </trkpt>
      <trkpt lat="44.38696" lon="1.27233">
        <ele>232.78</ele>
        <time>2024-01-20T14:25:07Z</time>
      </trkpt>
      <trkpt lat="44.38685" lon="1.27236">
        <ele>231.81</ele>
        <time>2024-01-20T14:25:15Z</time>
      </trkpt>
      <trkpt lat="44.38675" lon="1.27239">
        <ele>230.85</ele>
        <time>2024-01-20T14:25:23Z</time>
      </trkpt>
      <trkpt lat="44.38663" lon="1.27243">
        <ele>230.37</ele>
        <time>2024-01-20T14:25:31Z</time>
      </trkpt>
      <trkpt lat="44.38654" lon="1.27246">
        <ele>229.89</ele>
        <time>2024-01-20T14:25:39Z</time>
      </trkpt>
      <trkpt lat="44.38643" lon="1.27251">
        <ele>229.41</ele>
        <time>2024-01-20T14:25:48Z</time>
      </trkpt>
      <trkpt lat="44.38634" lon="1.2726">
        <ele>228.93</ele>
        <time>2024-01-20T14:25:59Z</time>
      </trkpt>
      <trkpt lat="44.38627" lon="1.27271">
        <ele>227.49</ele>
        <time>2024-01-20T14:26:10Z</time>
      </trkpt>
      <trkpt lat="44.38619" lon="1.2728">
        <ele>226.05</ele>
        <time>2024-01-20T14:26:19Z</time>
      </trkpt>
      <trkpt lat="44.3861" lon="1.27287">
        <ele>225.57</ele>
        <time>2024-01-20T14:26:27Z</time>
      </trkpt>
      <trkpt lat="44.386" lon="1.27292">
        <ele>225.57</ele>
        <time>2024-01-20T14:26:36Z</time>
      </trkpt>
      <trkpt lat="44.38592" lon="1.27298">
        <ele>225.57</ele>
        <time>2024-01-20T14:26:46Z</time>
      </trkpt>
      <trkpt lat="44.38584" lon="1.27305">
        <ele>225.09</ele>
        <time>2024-01-20T14:26:54Z</time>
      </trkpt>
      <trkpt lat="44.38573" lon="1.27313">
        <ele>225.09</ele>
        <time>2024-01-20T14:27:02Z</time>
      </trkpt>
      <trkpt lat="44.38564" lon="1.2732">
        <ele>224.61</ele>
        <time>2024-01-20T14:27:10Z</time>
      </trkpt>
      <trkpt lat="44.38556" lon="1.27327">
        <ele>224.61</ele>
        <time>2024-01-20T14:27:17Z</time>
      </trkpt>
      <trkpt lat="44.38548" lon="1.27337">
        <ele>224.61</ele>
        <time>2024-01-20T14:27:26Z</time>
      </trkpt>
      <trkpt lat="44.3854" lon="1.27346">
        <ele>224.12</ele>
        <time>2024-01-20T14:27:36Z</time>
      </trkpt>
      <trkpt lat="44.38532" lon="1.27354">
        <ele>223.64</ele>
        <time>2024-01-20T14:27:44Z</time>
      </trkpt>
      <trkpt lat="44.38524" lon="1.27362">
        <ele>223.64</ele>
        <time>2024-01-20T14:27:52Z</time>
      </trkpt>
      <trkpt lat="44.38516" lon="1.27371">
        <ele>223.64</ele>
        <time>2024-01-20T14:28:00Z</time>
      </trkpt>
      <trkpt lat="44.38508" lon="1.27378">
        <ele>223.64</ele>
        <time>2024-01-20T14:28:08Z</time>
      </trkpt>
      <trkpt lat="44.38501" lon="1.27387">
        <ele>223.64</ele>
        <time>2024-01-20T14:28:16Z</time>
      </trkpt>
      <trkpt lat="44.38493" lon="1.27398">
        <ele>223.64</ele>
        <time>2024-01-20T14:28:25Z</time>
      </trkpt>
      <trkpt lat="44.38485" lon="1.27409">
        <ele>223.16</ele>
        <time>2024-01-20T14:28:34Z</time>
      </trkpt>
      <trkpt lat="44.38478" lon="1.27419">
        <ele>223.16</ele>
        <time>2024-01-20T14:28:42Z</time>
      </trkpt>
      <trkpt lat="44.38471" lon="1.27428">
        <ele>223.16</ele>
        <time>2024-01-20T14:28:51Z</time>
      </trkpt>
      <trkpt lat="44.38464" lon="1.27438">
        <ele>223.16</ele>
        <time>2024-01-20T14:28:59Z</time>
      </trkpt>
      <trkpt lat="44.38458" lon="1.27448">
        <ele>223.16</ele>
        <time>2024-01-20T14:29:07Z</time>
      </trkpt>
      <trkpt lat="44.38451" lon="1.27458">
        <ele>223.16</ele>
        <time>2024-01-20T14:29:15Z</time>
      </trkpt>
      <trkpt lat="44.38443" lon="1.27466">
        <ele>222.68</ele>
        <time>2024-01-20T14:29:22Z</time>
      </trkpt>
      <trkpt lat="44.38433" lon="1.27473">
        <ele>222.68</ele>
        <time>2024-01-20T14:29:30Z</time>
      </trkpt>
      <trkpt lat="44.38424" lon="1.27479">
        <ele>222.68</ele>
        <time>2024-01-20T14:29:38Z</time>
      </trkpt>
      <trkpt lat="44.38415" lon="1.27483">
        <ele>222.68</ele>
        <time>2024-01-20T14:29:45Z</time>
      </trkpt>
      <trkpt lat="44.38407" lon="1.27489">
        <ele>222.68</ele>
        <time>2024-01-20T14:29:52Z</time>
      </trkpt>
      <trkpt lat="44.38398" lon="1.27494">
        <ele>222.2</ele>
        <time>2024-01-20T14:29:59Z</time>
      </trkpt>
      <trkpt lat="44.38389" lon="1.27498">
        <ele>222.2</ele>
        <time>2024-01-20T14:30:07Z</time>
      </trkpt>
      <trkpt lat="44.3838" lon="1.27502">
        <ele>222.2</ele>
        <time>2024-01-20T14:30:15Z</time>
      </trkpt>
      <trkpt lat="44.3837" lon="1.27507">
        <ele>221.72</ele>
        <time>2024-01-20T14:30:23Z</time>
      </trkpt>
      <trkpt lat="44.38362" lon="1.27513">
        <ele>221.24</ele>
        <time>2024-01-20T14:30:31Z</time>
      </trkpt>
      <trkpt lat="44.38352" lon="1.27519">
        <ele>220.28</ele>
        <time>2024-01-20T14:30:39Z</time>
      </trkpt>
      <trkpt lat="44.38343" lon="1.27524">
        <ele>219.8</ele>
        <time>2024-01-20T14:30:46Z</time>
      </trkpt>
      <trkpt lat="44.38335" lon="1.27531">
        <ele>218.84</ele>
        <time>2024-01-20T14:30:54Z</time>
      </trkpt>
      <trkpt lat="44.38335" lon="1.27543">
        <ele>217.88</ele>
        <time>2024-01-20T14:31:02Z</time>
      </trkpt>
      <trkpt lat="44.38338" lon="1.27555">
        <ele>217.88</ele>
        <time>2024-01-20T14:31:11Z</time>
      </trkpt>
      <trkpt lat="44.38343" lon="1.27568">
        <ele>217.88</ele>
        <time>2024-01-20T14:31:20Z</time>
      </trkpt>
      <trkpt lat="44.38345" lon="1.27581">
        <ele>217.4</ele>
        <time>2024-01-20T14:31:28Z</time>
      </trkpt>
      <trkpt lat="44.38346" lon="1.27595">
        <ele>217.4</ele>
        <time>2024-01-20T14:31:36Z</time>
      </trkpt>
      <trkpt lat="44.38347" lon="1.27611">
        <ele>217.4</ele>
        <time>2024-01-20T14:31:45Z</time>
      </trkpt>
      <trkpt lat="44.38344" lon="1.27624">
        <ele>216.91</ele>
        <time>2024-01-20T14:31:52Z</time>
      </trkpt>
      <trkpt lat="44.38339" lon="1.27635">
        <ele>216.91</ele>
        <time>2024-01-20T14:32:00Z</time>
      </trkpt>
      <trkpt lat="44.38332" lon="1.27644">
        <ele>216.91</ele>
        <time>2024-01-20T14:32:07Z</time>
      </trkpt>
      <trkpt lat="44.38324" lon="1.27653">
        <ele>216.91</ele>
        <time>2024-01-20T14:32:15Z</time>
      </trkpt>
      <trkpt lat="44.38314" lon="1.27661">
        <ele>216.91</ele>
        <time>2024-01-20T14:32:25Z</time>
      </trkpt>
      <trkpt lat="44.38303" lon="1.27662">
        <ele>216.91</ele>
        <time>2024-01-20T14:32:41Z</time>
      </trkpt>
      <trkpt lat="44.38294" lon="1.27651">
        <ele>216.91</ele>
        <time>2024-01-20T14:32:51Z</time>
      </trkpt>
      <trkpt lat="44.38286" lon="1.2764">
        <ele>216.91</ele>
        <time>2024-01-20T14:33:00Z</time>
      </trkpt>
      <trkpt lat="44.38278" lon="1.27629">
        <ele>216.91</ele>
        <time>2024-01-20T14:33:09Z</time>
      </trkpt>
      <trkpt lat="44.3827" lon="1.27625">
        <ele>216.43</ele>
        <time>2024-01-20T14:33:19Z</time>
      </trkpt>
      <trkpt lat="44.38265" lon="1.27636">
        <ele>218.36</ele>
        <time>2024-01-20T14:33:30Z</time>
      </trkpt>
      <trkpt lat="44.38259" lon="1.27647">
        <ele>219.32</ele>
        <time>2024-01-20T14:33:40Z</time>
      </trkpt>
      <trkpt lat="44.38251" lon="1.27657">
        <ele>220.28</ele>
        <time>2024-01-20T14:33:49Z</time>
      </trkpt>
      <trkpt lat="44.38244" lon="1.27667">
        <ele>220.76</ele>
        <time>2024-01-20T14:33:59Z</time>
      </trkpt>
      <trkpt lat="44.38235" lon="1.27676">
        <ele>222.2</ele>
        <time>2024-01-20T14:34:11Z</time>
      </trkpt>
      <trkpt lat="44.38227" lon="1.27685">
        <ele>222.68</ele>
        <time>2024-01-20T14:34:21Z</time>
      </trkpt>
      <trkpt lat="44.38219" lon="1.27693">
        <ele>223.64</ele>
        <time>2024-01-20T14:34:32Z</time>
      </trkpt>
      <trkpt lat="44.38211" lon="1.277">
        <ele>225.09</ele>
        <time>2024-01-20T14:34:43Z</time>
      </trkpt>
      <trkpt lat="44.38201" lon="1.27704">
        <ele>226.53</ele>
        <time>2024-01-20T14:34:55Z</time>
      </trkpt>
      <trkpt lat="44.38191" lon="1.27709">
        <ele>227.49</ele>
        <time>2024-01-20T14:35:07Z</time>
      </trkpt>
      <trkpt lat="44.38181" lon="1.27712">
        <ele>229.41</ele>
        <time>2024-01-20T14:35:19Z</time>
      </trkpt>
      <trkpt lat="44.38171" lon="1.27719">
        <ele>229.89</ele>
        <time>2024-01-20T14:35:31Z</time>
      </trkpt>
      <trkpt lat="44.38163" lon="1.27727">
        <ele>229.89</ele>
        <time>2024-01-20T14:35:40Z</time>
      </trkpt>
      <trkpt lat="44.38155" lon="1.27736">
        <ele>230.37</ele>
        <time>2024-01-20T14:35:50Z</time>
      </trkpt>
      <trkpt lat="44.38147" lon="1.27744">
        <ele>230.85</ele>
        <time>2024-01-20T14:36:01Z</time>
      </trkpt>
      <trkpt lat="44.38139" lon="1.27753">
        <ele>231.81</ele>
        <time>2024-01-20T14:36:11Z</time>
      </trkpt>
      <trkpt lat="44.38131" lon="1.27761">
        <ele>233.26</ele>
        <time>2024-01-20T14:36:24Z</time>
      </trkpt>
      <trkpt lat="44.38123" lon="1.2777">
        <ele>234.7</ele>
        <time>2024-01-20T14:36:37Z</time>
      </trkpt>
      <trkpt lat="44.38114" lon="1.27778">
        <ele>234.7</ele>
        <time>2024-01-20T14:36:48Z</time>
      </trkpt>
      <trkpt lat="44.38106" lon="1.27784">
        <ele>234.7</ele>
        <time>2024-01-20T14:36:58Z</time>
      </trkpt>
      <trkpt lat="44.38096" lon="1.27793">
        <ele>235.66</ele>
        <time>2024-01-20T14:37:09Z</time>
      </trkpt>
      <trkpt lat="44.38086" lon="1.278">
        <ele>236.62</ele>
        <time>2024-01-20T14:37:20Z</time>
      </trkpt>
      <trkpt lat="44.38079" lon="1.27804">
        <ele>237.1</ele>
        <time>2024-01-20T14:37:30Z</time>
      </trkpt>
      <trkpt lat="44.38069" lon="1.27807">
        <ele>238.06</ele>
        <time>2024-01-20T14:37:40Z</time>
      </trkpt>
      <trkpt lat="44.38059" lon="1.27812">
        <ele>239.51</ele>
        <time>2024-01-20T14:37:52Z</time>
      </trkpt>
      <trkpt lat="44.38049" lon="1.27816">
        <ele>241.91</ele>
        <time>2024-01-20T14:38:07Z</time>
      </trkpt>
      <trkpt lat="44.38038" lon="1.27815">
        <ele>245.75</ele>
        <time>2024-01-20T14:38:28Z</time>
      </trkpt>
      <trkpt lat="44.38027" lon="1.27807">
        <ele>250.08</ele>
        <time>2024-01-20T14:38:59Z</time>
      </trkpt>
      <trkpt lat="44.38018" lon="1.27804">
        <ele>253.44</ele>
        <time>2024-01-20T14:39:20Z</time>
      </trkpt>
      <trkpt lat="44.3801" lon="1.278">
        <ele>256.81</ele>
        <time>2024-01-20T14:39:42Z</time>
      </trkpt>
      <trkpt lat="44.38001" lon="1.27799">
        <ele>259.69</ele>
        <time>2024-01-20T14:40:02Z</time>
      </trkpt>
      <trkpt lat="44.37992" lon="1.27798">
        <ele>262.1</ele>
        <time>2024-01-20T14:40:28Z</time>
      </trkpt>
      <trkpt lat="44.37982" lon="1.27798">
        <ele>264.02</ele>
        <time>2024-01-20T14:40:43Z</time>
      </trkpt>
      <trkpt lat="44.37973" lon="1.278">
        <ele>265.46</ele>
        <time>2024-01-20T14:40:56Z</time>
      </trkpt>
      <trkpt lat="44.37963" lon="1.27803">
        <ele>265.46</ele>
        <time>2024-01-20T14:41:08Z</time>
      </trkpt>
      <trkpt lat="44.37957" lon="1.27806">
        <ele>265.46</ele>
        <time>2024-01-20T14:41:25Z</time>
      </trkpt>
      <trkpt lat="44.37951" lon="1.27817">
        <ele>265.46</ele>
        <time>2024-01-20T14:41:37Z</time>
      </trkpt>
      <trkpt lat="44.37945" lon="1.2783">
        <ele>265.46</ele>
        <time>2024-01-20T14:41:50Z</time>
      </trkpt>
      <trkpt lat="44.3794" lon="1.27843">
        <ele>265.46</ele>
        <time>2024-01-20T14:42:02Z</time>
      </trkpt>
      <trkpt lat="44.37936" lon="1.27851">
        <ele>265.94</ele>
        <time>2024-01-20T14:42:27Z</time>
      </trkpt>
      <trkpt lat="44.37926" lon="1.27854">
        <ele>265.94</ele>
        <time>2024-01-20T14:42:38Z</time>
      </trkpt>
      <trkpt lat="44.37917" lon="1.27856">
        <ele>264.5</ele>
        <time>2024-01-20T14:42:48Z</time>
      </trkpt>
      <trkpt lat="44.37909" lon="1.27861">
        <ele>264.02</ele>
        <time>2024-01-20T14:42:57Z</time>
      </trkpt>
      <trkpt lat="44.37904" lon="1.27873">
        <ele>264.02</ele>
        <time>2024-01-20T14:43:07Z</time>
      </trkpt>
      <trkpt lat="44.37897" lon="1.27882">
        <ele>264.02</ele>
        <time>2024-01-20T14:43:16Z</time>
      </trkpt>
      <trkpt lat="44.37888" lon="1.27888">
        <ele>263.54</ele>
        <time>2024-01-20T14:43:24Z</time>
      </trkpt>
      <trkpt lat="44.3788" lon="1.27894">
        <ele>263.54</ele>
        <time>2024-01-20T14:43:32Z</time>
      </trkpt>
      <trkpt lat="44.37873" lon="1.27904">
        <ele>263.54</ele>
        <time>2024-01-20T14:43:41Z</time>
      </trkpt>
      <trkpt lat="44.3787" lon="1.27916">
        <ele>264.98</ele>
        <time>2024-01-20T14:43:52Z</time>
      </trkpt>
      <trkpt lat="44.37864" lon="1.27928">
        <ele>265.94</ele>
        <time>2024-01-20T14:44:02Z</time>
      </trkpt>
      <trkpt lat="44.37855" lon="1.27932">
        <ele>265.94</ele>
        <time>2024-01-20T14:44:11Z</time>
      </trkpt>
      <trkpt lat="44.37845" lon="1.27932">
        <ele>265.94</ele>
        <time>2024-01-20T14:44:20Z</time>
      </trkpt>
      <trkpt lat="44.37837" lon="1.27929">
        <ele>265.94</ele>
        <time>2024-01-20T14:44:37Z</time>
      </trkpt>
      <trkpt lat="44.37828" lon="1.27928">
        <ele>265.94</ele>
        <time>2024-01-20T14:44:45Z</time>
      </trkpt>
      <trkpt lat="44.37819" lon="1.27929">
        <ele>265.94</ele>
        <time>2024-01-20T14:44:54Z</time>
      </trkpt>
      <trkpt lat="44.37813" lon="1.2792">
        <ele>265.94</ele>
        <time>2024-01-20T14:45:03Z</time>
      </trkpt>
      <trkpt lat="44.37806" lon="1.27911">
        <ele>265.94</ele>
        <time>2024-01-20T14:45:11Z</time>
      </trkpt>
      <trkpt lat="44.37802" lon="1.279">
        <ele>264.98</ele>
        <time>2024-01-20T14:45:27Z</time>
      </trkpt>
      <trkpt lat="44.37796" lon="1.2789">
        <ele>264.98</ele>
        <time>2024-01-20T14:45:35Z</time>
      </trkpt>
      <trkpt lat="44.3779" lon="1.27877">
        <ele>264.5</ele>
        <time>2024-01-20T14:45:45Z</time>
      </trkpt>
      <trkpt lat="44.37786" lon="1.27865">
        <ele>264.5</ele>
        <time>2024-01-20T14:45:54Z</time>
      </trkpt>
      <trkpt lat="44.37782" lon="1.27851">
        <ele>264.5</ele>
        <time>2024-01-20T14:46:04Z</time>
      </trkpt>
      <trkpt lat="44.37778" lon="1.27835">
        <ele>264.5</ele>
        <time>2024-01-20T14:46:15Z</time>
      </trkpt>
      <trkpt lat="44.37771" lon="1.27819">
        <ele>264.5</ele>
        <time>2024-01-20T14:46:26Z</time>
      </trkpt>
      <trkpt lat="44.37765" lon="1.27804">
        <ele>264.5</ele>
        <time>2024-01-20T14:46:36Z</time>
      </trkpt>
      <trkpt lat="44.37759" lon="1.27792">
        <ele>264.5</ele>
        <time>2024-01-20T14:46:45Z</time>
      </trkpt>
      <trkpt lat="44.37754" lon="1.27779">
        <ele>264.5</ele>
        <time>2024-01-20T14:46:55Z</time>
      </trkpt>
      <trkpt lat="44.3775" lon="1.27763">
        <ele>264.5</ele>
        <time>2024-01-20T14:47:09Z</time>
      </trkpt>
      <trkpt lat="44.37745" lon="1.27748">
        <ele>264.5</ele>
        <time>2024-01-20T14:47:19Z</time>
      </trkpt>
      <trkpt lat="44.37739" lon="1.27733">
        <ele>264.5</ele>
        <time>2024-01-20T14:47:29Z</time>
      </trkpt>
      <trkpt lat="44.37732" lon="1.2772">
        <ele>264.02</ele>
        <time>2024-01-20T14:47:39Z</time>
      </trkpt>
      <trkpt lat="44.37723" lon="1.27713">
        <ele>263.54</ele>
        <time>2024-01-20T14:47:48Z</time>
      </trkpt>
      <trkpt lat="44.37712" lon="1.27711">
        <ele>263.06</ele>
        <time>2024-01-20T14:47:56Z</time>
      </trkpt>
      <trkpt lat="44.37702" lon="1.27711">
        <ele>263.06</ele>
        <time>2024-01-20T14:48:07Z</time>
      </trkpt>
      <trkpt lat="44.37691" lon="1.27715">
        <ele>263.06</ele>
        <time>2024-01-20T14:48:18Z</time>
      </trkpt>
      <trkpt lat="44.37681" lon="1.2772">
        <ele>262.58</ele>
        <time>2024-01-20T14:48:27Z</time>
      </trkpt>
      <trkpt lat="44.37671" lon="1.27716">
        <ele>262.58</ele>
        <time>2024-01-20T14:48:36Z</time>
      </trkpt>
      <trkpt lat="44.37662" lon="1.27707">
        <ele>262.1</ele>
        <time>2024-01-20T14:48:45Z</time>
      </trkpt>
      <trkpt lat="44.37656" lon="1.27696">
        <ele>262.1</ele>
        <time>2024-01-20T14:48:54Z</time>
      </trkpt>
      <trkpt lat="44.37649" lon="1.27687">
        <ele>261.62</ele>
        <time>2024-01-20T14:49:02Z</time>
      </trkpt>
      <trkpt lat="44.37644" lon="1.27676">
        <ele>261.62</ele>
        <time>2024-01-20T14:49:10Z</time>
      </trkpt>
      <trkpt lat="44.37637" lon="1.27667">
        <ele>261.14</ele>
        <time>2024-01-20T14:49:18Z</time>
      </trkpt>
      <trkpt lat="44.37631" lon="1.27656">
        <ele>261.14</ele>
        <time>2024-01-20T14:49:27Z</time>
      </trkpt>
      <trkpt lat="44.37625" lon="1.27646">
        <ele>260.65</ele>
        <time>2024-01-20T14:49:35Z</time>
      </trkpt>
      <trkpt lat="44.3762" lon="1.27635">
        <ele>260.65</ele>
        <time>2024-01-20T14:49:44Z</time>
      </trkpt>
      <trkpt lat="44.37614" lon="1.27625">
        <ele>259.21</ele>
        <time>2024-01-20T14:49:52Z</time>
      </trkpt>
      <trkpt lat="44.37607" lon="1.27616">
        <ele>258.73</ele>
        <time>2024-01-20T14:50:01Z</time>
      </trkpt>
      <trkpt lat="44.376" lon="1.27608">
        <ele>258.73</ele>
        <time>2024-01-20T14:50:09Z</time>
      </trkpt>
      <trkpt lat="44.37592" lon="1.27598">
        <ele>258.25</ele>
        <time>2024-01-20T14:50:18Z</time>
      </trkpt>
      <trkpt lat="44.37585" lon="1.27588">
        <ele>257.29</ele>
        <time>2024-01-20T14:50:27Z</time>
      </trkpt>
      <trkpt lat="44.37578" lon="1.27578">
        <ele>256.81</ele>
        <time>2024-01-20T14:50:36Z</time>
      </trkpt>
      <trkpt lat="44.37571" lon="1.27566">
        <ele>255.85</ele>
        <time>2024-01-20T14:50:46Z</time>
      </trkpt>
      <trkpt lat="44.37563" lon="1.27556">
        <ele>255.37</ele>
        <time>2024-01-20T14:50:56Z</time>
      </trkpt>
      <trkpt lat="44.37555" lon="1.27545">
        <ele>254.89</ele>
        <time>2024-01-20T14:51:06Z</time>
      </trkpt>
      <trkpt lat="44.37547" lon="1.27536">
        <ele>253.44</ele>
        <time>2024-01-20T14:51:16Z</time>
      </trkpt>
      <trkpt lat="44.3754" lon="1.27524">
        <ele>252.48</ele>
        <time>2024-01-20T14:51:25Z</time>
      </trkpt>
      <trkpt lat="44.37533" lon="1.27514">
        <ele>251.04</ele>
        <time>2024-01-20T14:51:34Z</time>
      </trkpt>
      <trkpt lat="44.37527" lon="1.27505">
        <ele>249.12</ele>
        <time>2024-01-20T14:51:43Z</time>
      </trkpt>
      <trkpt lat="44.37519" lon="1.27494">
        <ele>247.68</ele>
        <time>2024-01-20T14:51:55Z</time>
      </trkpt>
      <trkpt lat="44.37513" lon="1.27483">
        <ele>245.27</ele>
        <time>2024-01-20T14:52:06Z</time>
      </trkpt>
      <trkpt lat="44.37506" lon="1.27472">
        <ele>243.35</ele>
        <time>2024-01-20T14:52:16Z</time>
      </trkpt>
      <trkpt lat="44.37499" lon="1.27462">
        <ele>240.95</ele>
        <time>2024-01-20T14:52:26Z</time>
      </trkpt>
      <trkpt lat="44.37492" lon="1.27451">
        <ele>239.02</ele>
        <time>2024-01-20T14:52:35Z</time>
      </trkpt>
      <trkpt lat="44.37487" lon="1.27438">
        <ele>237.1</ele>
        <time>2024-01-20T14:52:45Z</time>
      </trkpt>
      <trkpt lat="44.37479" lon="1.27427">
        <ele>234.7</ele>
        <time>2024-01-20T14:52:56Z</time>
      </trkpt>
      <trkpt lat="44.37471" lon="1.27416">
        <ele>232.78</ele>
        <time>2024-01-20T14:53:07Z</time>
      </trkpt>
      <trkpt lat="44.37464" lon="1.27403">
        <ele>230.85</ele>
        <time>2024-01-20T14:53:18Z</time>
      </trkpt>
      <trkpt lat="44.37457" lon="1.27393">
        <ele>228.45</ele>
        <time>2024-01-20T14:53:30Z</time>
      </trkpt>
      <trkpt lat="44.3745" lon="1.27381">
        <ele>226.53</ele>
        <time>2024-01-20T14:53:43Z</time>
      </trkpt>
      <trkpt lat="44.37442" lon="1.2737">
        <ele>224.12</ele>
        <time>2024-01-20T14:53:58Z</time>
      </trkpt>
      <trkpt lat="44.37435" lon="1.27359">
        <ele>221.24</ele>
        <time>2024-01-20T14:54:24Z</time>
      </trkpt>
      <trkpt lat="44.37429" lon="1.27346">
        <ele>218.84</ele>
        <time>2024-01-20T14:54:36Z</time>
      </trkpt>
      <trkpt lat="44.37425" lon="1.27334">
        <ele>216.43</ele>
        <time>2024-01-20T14:55:00Z</time>
      </trkpt>
      <trkpt lat="44.37416" lon="1.27328">
        <ele>214.99</ele>
        <time>2024-01-20T14:55:10Z</time>
      </trkpt>
      <trkpt lat="44.37413" lon="1.27316">
        <ele>214.03</ele>
        <time>2024-01-20T14:55:21Z</time>
      </trkpt>
      <trkpt lat="44.37407" lon="1.27304">
        <ele>213.07</ele>
        <time>2024-01-20T14:55:35Z</time>
      </trkpt>
      <trkpt lat="44.374" lon="1.27293">
        <ele>211.63</ele>
        <time>2024-01-20T14:55:43Z</time>
      </trkpt>
      <trkpt lat="44.37393" lon="1.2728">
        <ele>209.7</ele>
        <time>2024-01-20T14:55:54Z</time>
      </trkpt>
      <trkpt lat="44.37387" lon="1.27269">
        <ele>208.74</ele>
        <time>2024-01-20T14:56:02Z</time>
      </trkpt>
      <trkpt lat="44.3738" lon="1.27259">
        <ele>207.78</ele>
        <time>2024-01-20T14:56:11Z</time>
      </trkpt>
      <trkpt lat="44.37373" lon="1.27248">
        <ele>206.82</ele>
        <time>2024-01-20T14:56:20Z</time>
      </trkpt>
      <trkpt lat="44.37365" lon="1.27238">
        <ele>205.86</ele>
        <time>2024-01-20T14:56:29Z</time>
      </trkpt>
      <trkpt lat="44.37355" lon="1.27233">
        <ele>205.38</ele>
        <time>2024-01-20T14:56:37Z</time>
      </trkpt>
      <trkpt lat="44.37346" lon="1.2723">
        <ele>203.94</ele>
        <time>2024-01-20T14:56:45Z</time>
      </trkpt>
      <trkpt lat="44.37335" lon="1.27227">
        <ele>202.98</ele>
        <time>2024-01-20T14:57:22Z</time>
      </trkpt>
      <trkpt lat="44.37325" lon="1.27222">
        <ele>202.98</ele>
        <time>2024-01-20T14:57:38Z</time>
      </trkpt>
      <trkpt lat="44.37321" lon="1.27211">
        <ele>202.49</ele>
        <time>2024-01-20T14:57:47Z</time>
      </trkpt>
      <trkpt lat="44.3732" lon="1.27197">
        <ele>202.01</ele>
        <time>2024-01-20T14:57:56Z</time>
      </trkpt>
      <trkpt lat="44.37317" lon="1.27184">
        <ele>202.01</ele>
        <time>2024-01-20T14:58:04Z</time>
      </trkpt>
      <trkpt lat="44.37312" lon="1.27171">
        <ele>201.53</ele>
        <time>2024-01-20T14:58:12Z</time>
      </trkpt>
      <trkpt lat="44.37308" lon="1.27158">
        <ele>201.53</ele>
        <time>2024-01-20T14:58:20Z</time>
      </trkpt>
      <trkpt lat="44.37305" lon="1.27145">
        <ele>201.05</ele>
        <time>2024-01-20T14:58:27Z</time>
      </trkpt>
      <trkpt lat="44.37302" lon="1.27133">
        <ele>201.05</ele>
        <time>2024-01-20T14:58:33Z</time>
      </trkpt>
      <trkpt lat="44.373" lon="1.27122">
        <ele>200.57</ele>
        <time>2024-01-20T14:58:38Z</time>
      </trkpt>
      <trkpt lat="44.37297" lon="1.27111">
        <ele>200.57</ele>
        <time>2024-01-20T14:58:43Z</time>
      </trkpt>
      <trkpt lat="44.37296" lon="1.27099">
        <ele>200.57</ele>
        <time>2024-01-20T14:58:48Z</time>
      </trkpt>
      <trkpt lat="44.37294" lon="1.27088">
        <ele>200.09</ele>
        <time>2024-01-20T14:58:53Z</time>
      </trkpt>
      <trkpt lat="44.37293" lon="1.27076">
        <ele>200.09</ele>
        <time>2024-01-20T14:58:58Z</time>
      </trkpt>
      <trkpt lat="44.37292" lon="1.27066">
        <ele>199.61</ele>
        <time>2024-01-20T14:59:03Z</time>
      </trkpt>
      <trkpt lat="44.37292" lon="1.27054">
        <ele>199.61</ele>
        <time>2024-01-20T14:59:08Z</time>
      </trkpt>
      <trkpt lat="44.37293" lon="1.27043">
        <ele>199.61</ele>
        <time>2024-01-20T14:59:13Z</time>
      </trkpt>
      <trkpt lat="44.37293" lon="1.27033">
        <ele>199.13</ele>
        <time>2024-01-20T14:59:18Z</time>
      </trkpt>
      <trkpt lat="44.37294" lon="1.27024">
        <ele>199.13</ele>
        <time>2024-01-20T14:59:23Z</time>
      </trkpt>
      <trkpt lat="44.37294" lon="1.27018">
        <ele>199.13</ele>
        <time>2024-01-20T14:59:29Z</time>
      </trkpt>
      <trkpt lat="44.37298" lon="1.27016">
        <ele>199.13</ele>
        <time>2024-01-20T14:59:36Z</time>
      </trkpt>
      <trkpt lat="44.37301" lon="1.27006">
        <ele>199.13</ele>
        <time>2024-01-20T14:59:43Z</time>
      </trkpt>
      <trkpt lat="44.37298" lon="1.26997">
        <ele>199.13</ele>
        <time>2024-01-20T14:59:50Z</time>
      </trkpt>
      <trkpt lat="44.37291" lon="1.2699">
        <ele>199.13</ele>
        <time>2024-01-20T14:59:58Z</time>
      </trkpt>
      <trkpt lat="44.37283" lon="1.26983">
        <ele>199.61</ele>
        <time>2024-01-20T15:00:05Z</time>
      </trkpt>
      <trkpt lat="44.37277" lon="1.26976">
        <ele>199.61</ele>
        <time>2024-01-20T15:00:12Z</time>
      </trkpt>
      <trkpt lat="44.37269" lon="1.26967">
        <ele>199.61</ele>
        <time>2024-01-20T15:00:20Z</time>
      </trkpt>
      <trkpt lat="44.3726" lon="1.26958">
        <ele>199.61</ele>
        <time>2024-01-20T15:00:28Z</time>
      </trkpt>
      <trkpt lat="44.37252" lon="1.2695">
        <ele>199.61</ele>
        <time>2024-01-20T15:00:35Z</time>
      </trkpt>
      <trkpt lat="44.37244" lon="1.26943">
        <ele>199.61</ele>
        <time>2024-01-20T15:00:43Z</time>
      </trkpt>
      <trkpt lat="44.37236" lon="1.26937">
        <ele>199.61</ele>
        <time>2024-01-20T15:00:51Z</time>
      </trkpt>
      <trkpt lat="44.37227" lon="1.26929">
        <ele>199.61</ele>
        <time>2024-01-20T15:00:59Z</time>
      </trkpt>
      <trkpt lat="44.37217" lon="1.26923">
        <ele>199.61</ele>
        <time>2024-01-20T15:01:07Z</time>
      </trkpt>
      <trkpt lat="44.37207" lon="1.26918">
        <ele>199.61</ele>
        <time>2024-01-20T15:01:15Z</time>
      </trkpt>
      <trkpt lat="44.37196" lon="1.26911">
        <ele>199.61</ele>
        <time>2024-01-20T15:01:23Z</time>
      </trkpt>
      <trkpt lat="44.37187" lon="1.26906">
        <ele>199.61</ele>
        <time>2024-01-20T15:01:30Z</time>
      </trkpt>
      <trkpt lat="44.37177" lon="1.269">
        <ele>199.61</ele>
        <time>2024-01-20T15:01:37Z</time>
      </trkpt>
      <trkpt lat="44.37168" lon="1.26894">
        <ele>199.61</ele>
        <time>2024-01-20T15:01:45Z</time>
      </trkpt>
      <trkpt lat="44.37159" lon="1.26889">
        <ele>199.61</ele>
        <time>2024-01-20T15:01:53Z</time>
      </trkpt>
      <trkpt lat="44.37149" lon="1.26883">
        <ele>199.61</ele>
        <time>2024-01-20T15:02:01Z</time>
      </trkpt>
      <trkpt lat="44.37139" lon="1.26879">
        <ele>199.61</ele>
        <time>2024-01-20T15:02:09Z</time>
      </trkpt>
      <trkpt lat="44.3713" lon="1.26874">
        <ele>199.61</ele>
        <time>2024-01-20T15:02:17Z</time>
      </trkpt>
      <trkpt lat="44.3712" lon="1.26868">
        <ele>199.61</ele>
        <time>2024-01-20T15:02:25Z</time>
      </trkpt>
      <trkpt lat="44.3711" lon="1.26861">
        <ele>199.61</ele>
        <time>2024-01-20T15:02:33Z</time>
      </trkpt>
      <trkpt lat="44.37102" lon="1.26854">
        <ele>199.13</ele>
        <time>2024-01-20T15:02:40Z</time>
      </trkpt>
      <trkpt lat="44.37093" lon="1.26845">
        <ele>199.13</ele>
        <time>2024-01-20T15:02:48Z</time>
      </trkpt>
      <trkpt lat="44.37084" lon="1.26838">
        <ele>198.65</ele>
        <time>2024-01-20T15:02:56Z</time>
      </trkpt>
      <trkpt lat="44.37075" lon="1.26831">
        <ele>198.65</ele>
        <time>2024-01-20T15:03:04Z</time>
      </trkpt>
      <trkpt lat="44.37067" lon="1.26825">
        <ele>198.65</ele>
        <time>2024-01-20T15:03:12Z</time>
      </trkpt>
      <trkpt lat="44.37056" lon="1.26818">
        <ele>198.17</ele>
        <time>2024-01-20T15:03:20Z</time>
      </trkpt>
      <trkpt lat="44.37045" lon="1.26813">
        <ele>198.17</ele>
        <time>2024-01-20T15:03:28Z</time>
      </trkpt>
      <trkpt lat="44.37036" lon="1.2681">
        <ele>198.17</ele>
        <time>2024-01-20T15:03:35Z</time>
      </trkpt>
      <trkpt lat="44.37026" lon="1.26806">
        <ele>198.17</ele>
        <time>2024-01-20T15:03:43Z</time>
      </trkpt>
      <trkpt lat="44.37017" lon="1.26801">
        <ele>198.17</ele>
        <time>2024-01-20T15:03:50Z</time>
      </trkpt>
      <trkpt lat="44.37009" lon="1.26797">
        <ele>198.17</ele>
        <time>2024-01-20T15:03:58Z</time>
      </trkpt>
      <trkpt lat="44.37" lon="1.26793">
        <ele>198.17</ele>
        <time>2024-01-20T15:04:06Z</time>
      </trkpt>
      <trkpt lat="44.36991" lon="1.26787">
        <ele>198.17</ele>
        <time>2024-01-20T15:04:14Z</time>
      </trkpt>
      <trkpt lat="44.36983" lon="1.2678">
        <ele>198.17</ele>
        <time>2024-01-20T15:04:22Z</time>
      </trkpt>
      <trkpt lat="44.36974" lon="1.26772">
        <ele>199.61</ele>
        <time>2024-01-20T15:04:30Z</time>
      </trkpt>
      <trkpt lat="44.36966" lon="1.26766">
        <ele>200.09</ele>
        <time>2024-01-20T15:04:38Z</time>
      </trkpt>
      <trkpt lat="44.36957" lon="1.26761">
        <ele>200.09</ele>
        <time>2024-01-20T15:04:46Z</time>
      </trkpt>
      <trkpt lat="44.36947" lon="1.26753">
        <ele>200.09</ele>
        <time>2024-01-20T15:04:55Z</time>
      </trkpt>
      <trkpt lat="44.36938" lon="1.26747">
        <ele>200.57</ele>
        <time>2024-01-20T15:05:04Z</time>
      </trkpt>
      <trkpt lat="44.36929" lon="1.26745">
        <ele>201.05</ele>
        <time>2024-01-20T15:05:13Z</time>
      </trkpt>
      <trkpt lat="44.36917" lon="1.26742">
        <ele>201.53</ele>
        <time>2024-01-20T15:05:23Z</time>
      </trkpt>
      <trkpt lat="44.36907" lon="1.26739">
        <ele>202.49</ele>
        <time>2024-01-20T15:05:33Z</time>
      </trkpt>
      <trkpt lat="44.36897" lon="1.26736">
        <ele>202.98</ele>
        <time>2024-01-20T15:05:43Z</time>
      </trkpt>
      <trkpt lat="44.36887" lon="1.26733">
        <ele>203.46</ele>
        <time>2024-01-20T15:05:52Z</time>
      </trkpt>
      <trkpt lat="44.36877" lon="1.26728">
        <ele>203.46</ele>
        <time>2024-01-20T15:06:02Z</time>
      </trkpt>
      <trkpt lat="44.36868" lon="1.26721">
        <ele>204.42</ele>
        <time>2024-01-20T15:06:14Z</time>
      </trkpt>
      <trkpt lat="44.3686" lon="1.26713">
        <ele>203.94</ele>
        <time>2024-01-20T15:06:26Z</time>
      </trkpt>
      <trkpt lat="44.36852" lon="1.26705">
        <ele>203.94</ele>
        <time>2024-01-20T15:06:37Z</time>
      </trkpt>
      <trkpt lat="44.36844" lon="1.26697">
        <ele>202.98</ele>
        <time>2024-01-20T15:06:49Z</time>
      </trkpt>
      <trkpt lat="44.36836" lon="1.2669">
        <ele>202.98</ele>
        <time>2024-01-20T15:07:02Z</time>
      </trkpt>
      <trkpt lat="44.36828" lon="1.26682">
        <ele>202.49</ele>
        <time>2024-01-20T15:07:17Z</time>
      </trkpt>
      <trkpt lat="44.3682" lon="1.26672">
        <ele>202.01</ele>
        <time>2024-01-20T15:07:30Z</time>
      </trkpt>
      <trkpt lat="44.36816" lon="1.2666">
        <ele>201.05</ele>
        <time>2024-01-20T15:07:41Z</time>
      </trkpt>
      <trkpt lat="44.36815" lon="1.26647">
        <ele>200.09</ele>
        <time>2024-01-20T15:07:53Z</time>
      </trkpt>
    </trkseg>
  </trk>
</gpx>